<?xml version="1.0" encoding="UTF-8" standalone="no" ?>
<gpx xmlns="http://www.topografix.com/GPX/1/1" xmlns:xsi="http://www.w3.org/2001/XMLSchema-instance" xsi:schemaLocation="http://www.topografix.com/GPX/1/1 http://www.topografix.com/GPX/1/1/gpx.xsd" version="1.1" creator="VisuGPX - https://www.visugpx.com">
  <metadata>
    <name>Pot_Thur 60</name>
  </metadata>
  <wpt lat="48.87672" lon="-0.388">
    <ele>204.2</ele>
    <name><![CDATA[WP 1]]></name>
  </wpt>
  <wpt lat="48.87672" lon="-0.388">
    <ele>204.2</ele>
    <name><![CDATA[Départ Arrivee]]></name>
  </wpt>
  <trk>
    <name><![CDATA[Les Isles Bardel 33km.]]></name>
    <extensions>
      <line xmlns="http://www.topografix.com/GPX/gpx_style/0/2">
        <color>888800</color>
        <width>4</width>
      </line>
    </extensions>
    <trkseg>
      <trkpt lat="48.91754" lon="-0.30574">
        <ele>208</ele>
        <time>2008-11-20T23:06:02Z</time>
      </trkpt>
      <trkpt lat="48.91754" lon="-0.30574">
        <ele>208</ele>
        <time>2008-11-20T23:06:02Z</time>
      </trkpt>
      <trkpt lat="48.91754" lon="-0.30574">
        <ele>208</ele>
        <time>2008-11-20T23:06:02Z</time>
      </trkpt>
      <trkpt lat="48.91754" lon="-0.30574">
        <ele>208</ele>
        <time>2008-11-20T23:06:02Z</time>
      </trkpt>
      <trkpt lat="48.91754" lon="-0.30574">
        <ele>208</ele>
        <time>2008-11-20T23:06:02Z</time>
      </trkpt>
      <trkpt lat="48.91803" lon="-0.30573">
        <ele>206</ele>
        <time>2008-11-20T23:05:43Z</time>
      </trkpt>
      <trkpt lat="48.91823" lon="-0.30535">
        <ele>205</ele>
        <time>2008-11-20T23:05:30Z</time>
      </trkpt>
      <trkpt lat="48.91882" lon="-0.30611">
        <ele>204</ele>
        <time>2008-11-20T23:04:59Z</time>
      </trkpt>
      <trkpt lat="48.91995" lon="-0.30639">
        <ele>200</ele>
        <time>2008-11-20T23:04:13Z</time>
      </trkpt>
      <trkpt lat="48.92098" lon="-0.30653">
        <ele>195</ele>
        <time>2008-11-20T23:03:32Z</time>
      </trkpt>
      <trkpt lat="48.92238" lon="-0.30642">
        <ele>193</ele>
        <time>2008-11-20T23:02:36Z</time>
      </trkpt>
      <trkpt lat="48.92324" lon="-0.30634">
        <ele>192</ele>
        <time>2008-11-20T23:02:01Z</time>
      </trkpt>
      <trkpt lat="48.92464" lon="-0.30632">
        <ele>189</ele>
        <time>2008-11-20T23:01:05Z</time>
      </trkpt>
      <trkpt lat="48.92598" lon="-0.30752">
        <ele>187</ele>
        <time>2008-11-20T23:00:03Z</time>
      </trkpt>
      <trkpt lat="48.92587" lon="-0.30868">
        <ele>186</ele>
        <time>2008-11-20T22:59:32Z</time>
      </trkpt>
      <trkpt lat="48.92549" lon="-0.31027">
        <ele>184</ele>
        <time>2008-11-20T22:58:48Z</time>
      </trkpt>
      <trkpt lat="48.92545" lon="-0.311">
        <ele>182</ele>
        <time>2008-11-20T22:58:28Z</time>
      </trkpt>
      <trkpt lat="48.92534" lon="-0.31316">
        <ele>176</ele>
        <time>2008-11-20T22:57:31Z</time>
      </trkpt>
      <trkpt lat="48.92552" lon="-0.31412">
        <ele>174</ele>
        <time>2008-11-20T22:57:05Z</time>
      </trkpt>
      <trkpt lat="48.92461" lon="-0.31533">
        <ele>171</ele>
        <time>2008-11-20T22:56:17Z</time>
      </trkpt>
      <trkpt lat="48.92379" lon="-0.31594">
        <ele>167</ele>
        <time>2008-11-20T22:55:40Z</time>
      </trkpt>
      <trkpt lat="48.92278" lon="-0.31684">
        <ele>172</ele>
        <time>2008-11-20T22:54:53Z</time>
      </trkpt>
      <trkpt lat="48.9219" lon="-0.31779">
        <ele>175</ele>
        <time>2008-11-20T22:54:10Z</time>
      </trkpt>
      <trkpt lat="48.92151" lon="-0.3186">
        <ele>175</ele>
        <time>2008-11-20T22:53:44Z</time>
      </trkpt>
      <trkpt lat="48.92049" lon="-0.32062">
        <ele>183</ele>
        <time>2008-11-20T22:52:37Z</time>
      </trkpt>
      <trkpt lat="48.91966" lon="-0.32097">
        <ele>183</ele>
        <time>2008-11-20T22:52:02Z</time>
      </trkpt>
      <trkpt lat="48.91823" lon="-0.32107">
        <ele>186</ele>
        <time>2008-11-20T22:51:05Z</time>
      </trkpt>
      <trkpt lat="48.91765" lon="-0.32139">
        <ele>189</ele>
        <time>2008-11-20T22:50:40Z</time>
      </trkpt>
      <trkpt lat="48.91645" lon="-0.32163">
        <ele>191</ele>
        <time>2008-11-20T22:49:51Z</time>
      </trkpt>
      <trkpt lat="48.91551" lon="-0.32145">
        <ele>191</ele>
        <time>2008-11-20T22:49:14Z</time>
      </trkpt>
      <trkpt lat="48.91421" lon="-0.32199">
        <ele>192</ele>
        <time>2008-11-20T22:48:20Z</time>
      </trkpt>
      <trkpt lat="48.91323" lon="-0.32172">
        <ele>198</ele>
        <time>2008-11-20T22:47:40Z</time>
      </trkpt>
      <trkpt lat="48.90944" lon="-0.31858">
        <ele>209</ele>
        <time>2008-11-20T22:44:47Z</time>
      </trkpt>
      <trkpt lat="48.90482" lon="-0.31588">
        <ele>222</ele>
        <time>2008-11-20T22:41:29Z</time>
      </trkpt>
      <trkpt lat="48.90128" lon="-0.31972">
        <ele>224</ele>
        <time>2008-11-20T22:38:35Z</time>
      </trkpt>
      <trkpt lat="48.8999" lon="-0.32143">
        <ele>219</ele>
        <time>2008-11-20T22:37:24Z</time>
      </trkpt>
      <trkpt lat="48.89953" lon="-0.32254">
        <ele>217</ele>
        <time>2008-11-20T22:36:51Z</time>
      </trkpt>
      <trkpt lat="48.89901" lon="-0.32429">
        <ele>215</ele>
        <time>2008-11-20T22:36:01Z</time>
      </trkpt>
      <trkpt lat="48.89872" lon="-0.32583">
        <ele>214</ele>
        <time>2008-11-20T22:35:18Z</time>
      </trkpt>
      <trkpt lat="48.89776" lon="-0.32669">
        <ele>211</ele>
        <time>2008-11-20T22:34:34Z</time>
      </trkpt>
      <trkpt lat="48.89733" lon="-0.32671">
        <ele>211</ele>
        <time>2008-11-20T22:34:16Z</time>
      </trkpt>
      <trkpt lat="48.89652" lon="-0.32719">
        <ele>210</ele>
        <time>2008-11-20T22:33:42Z</time>
      </trkpt>
      <trkpt lat="48.89599" lon="-0.32785">
        <ele>210</ele>
        <time>2008-11-20T22:33:14Z</time>
      </trkpt>
      <trkpt lat="48.89529" lon="-0.32864">
        <ele>207</ele>
        <time>2008-11-20T22:32:39Z</time>
      </trkpt>
      <trkpt lat="48.89459" lon="-0.32895">
        <ele>205</ele>
        <time>2008-11-20T22:32:10Z</time>
      </trkpt>
      <trkpt lat="48.89383" lon="-0.32973">
        <ele>203</ele>
        <time>2008-11-20T22:31:34Z</time>
      </trkpt>
      <trkpt lat="48.89323" lon="-0.33014">
        <ele>204</ele>
        <time>2008-11-20T22:31:07Z</time>
      </trkpt>
      <trkpt lat="48.89249" lon="-0.33012">
        <ele>206</ele>
        <time>2008-11-20T22:30:38Z</time>
      </trkpt>
      <trkpt lat="48.89191" lon="-0.3303">
        <ele>208</ele>
        <time>2008-11-20T22:30:14Z</time>
      </trkpt>
      <trkpt lat="48.89164" lon="-0.3309">
        <ele>210</ele>
        <time>2008-11-20T22:29:55Z</time>
      </trkpt>
      <trkpt lat="48.89122" lon="-0.33183">
        <ele>216</ele>
        <time>2008-11-20T22:29:25Z</time>
      </trkpt>
      <trkpt lat="48.89037" lon="-0.33312">
        <ele>227</ele>
        <time>2008-11-20T22:28:37Z</time>
      </trkpt>
      <trkpt lat="48.88946" lon="-0.3339">
        <ele>233</ele>
        <time>2008-11-20T22:27:55Z</time>
      </trkpt>
      <trkpt lat="48.88912" lon="-0.33518">
        <ele>237</ele>
        <time>2008-11-20T22:27:19Z</time>
      </trkpt>
      <trkpt lat="48.88854" lon="-0.33675">
        <ele>240</ele>
        <time>2008-11-20T22:26:32Z</time>
      </trkpt>
      <trkpt lat="48.88802" lon="-0.33854">
        <ele>239</ele>
        <time>2008-11-20T22:25:40Z</time>
      </trkpt>
      <trkpt lat="48.88782" lon="-0.33988">
        <ele>237</ele>
        <time>2008-11-20T22:25:04Z</time>
      </trkpt>
      <trkpt lat="48.88762" lon="-0.34112">
        <ele>234</ele>
        <time>2008-11-20T22:24:30Z</time>
      </trkpt>
      <trkpt lat="48.88714" lon="-0.34205">
        <ele>231</ele>
        <time>2008-11-20T22:23:59Z</time>
      </trkpt>
      <trkpt lat="48.88654" lon="-0.34345">
        <ele>233</ele>
        <time>2008-11-20T22:23:15Z</time>
      </trkpt>
      <trkpt lat="48.88666" lon="-0.34415">
        <ele>233</ele>
        <time>2008-11-20T22:22:56Z</time>
      </trkpt>
      <trkpt lat="48.88579" lon="-0.34475">
        <ele>235</ele>
        <time>2008-11-20T22:22:18Z</time>
      </trkpt>
      <trkpt lat="48.88509" lon="-0.34558">
        <ele>240</ele>
        <time>2008-11-20T22:21:42Z</time>
      </trkpt>
      <trkpt lat="48.88541" lon="-0.34672">
        <ele>242</ele>
        <time>2008-11-20T22:21:10Z</time>
      </trkpt>
      <trkpt lat="48.88544" lon="-0.34781">
        <ele>242</ele>
        <time>2008-11-20T22:20:41Z</time>
      </trkpt>
      <trkpt lat="48.88545" lon="-0.34885">
        <ele>243</ele>
        <time>2008-11-20T22:20:14Z</time>
      </trkpt>
      <trkpt lat="48.8856" lon="-0.34972">
        <ele>243</ele>
        <time>2008-11-20T22:19:50Z</time>
      </trkpt>
      <trkpt lat="48.88561" lon="-0.35028">
        <ele>243</ele>
        <time>2008-11-20T22:19:35Z</time>
      </trkpt>
      <trkpt lat="48.8858" lon="-0.35068">
        <ele>241</ele>
        <time>2008-11-20T22:19:22Z</time>
      </trkpt>
      <trkpt lat="48.88632" lon="-0.35188">
        <ele>242</ele>
        <time>2008-11-20T22:18:44Z</time>
      </trkpt>
      <trkpt lat="48.88652" lon="-0.35301">
        <ele>240</ele>
        <time>2008-11-20T22:18:13Z</time>
      </trkpt>
      <trkpt lat="48.88659" lon="-0.35393">
        <ele>236</ele>
        <time>2008-11-20T22:17:49Z</time>
      </trkpt>
      <trkpt lat="48.88688" lon="-0.35472">
        <ele>237</ele>
        <time>2008-11-20T22:17:25Z</time>
      </trkpt>
      <trkpt lat="48.88737" lon="-0.35574">
        <ele>233</ele>
        <time>2008-11-20T22:16:52Z</time>
      </trkpt>
      <trkpt lat="48.88741" lon="-0.35657">
        <ele>237</ele>
        <time>2008-11-20T22:16:30Z</time>
      </trkpt>
      <trkpt lat="48.88744" lon="-0.35795">
        <ele>239</ele>
        <time>2008-11-20T22:15:54Z</time>
      </trkpt>
      <trkpt lat="48.88741" lon="-0.35925">
        <ele>242</ele>
        <time>2008-11-20T22:15:20Z</time>
      </trkpt>
      <trkpt lat="48.88713" lon="-0.35987">
        <ele>236</ele>
        <time>2008-11-20T22:15:00Z</time>
      </trkpt>
      <trkpt lat="48.88678" lon="-0.36137">
        <ele>227</ele>
        <time>2008-11-20T22:14:18Z</time>
      </trkpt>
      <trkpt lat="48.88648" lon="-0.36204">
        <ele>229</ele>
        <time>2008-11-20T22:13:57Z</time>
      </trkpt>
      <trkpt lat="48.88589" lon="-0.36409">
        <ele>229</ele>
        <time>2008-11-20T22:12:58Z</time>
      </trkpt>
      <trkpt lat="48.8845" lon="-0.36372">
        <ele>232</ele>
        <time>2008-11-20T22:12:01Z</time>
      </trkpt>
      <trkpt lat="48.8836" lon="-0.36349">
        <ele>233</ele>
        <time>2008-11-20T22:11:24Z</time>
      </trkpt>
      <trkpt lat="48.88255" lon="-0.36318">
        <ele>237</ele>
        <time>2008-11-20T22:10:42Z</time>
      </trkpt>
      <trkpt lat="48.88153" lon="-0.36148">
        <ele>244</ele>
        <time>2008-11-20T22:09:41Z</time>
      </trkpt>
      <trkpt lat="48.88033" lon="-0.36016">
        <ele>243</ele>
        <time>2008-11-20T22:08:42Z</time>
      </trkpt>
      <trkpt lat="48.88114" lon="-0.35843">
        <ele>245</ele>
        <time>2008-11-20T22:07:46Z</time>
      </trkpt>
      <trkpt lat="48.8813" lon="-0.35749">
        <ele>244</ele>
        <time>2008-11-20T22:07:20Z</time>
      </trkpt>
      <trkpt lat="48.88124" lon="-0.35666">
        <ele>242</ele>
        <time>2008-11-20T22:06:58Z</time>
      </trkpt>
      <trkpt lat="48.87907" lon="-0.34897">
        <ele>240</ele>
        <time>2008-11-20T22:03:18Z</time>
      </trkpt>
      <trkpt lat="48.87771" lon="-0.34973">
        <ele>244</ele>
        <time>2008-11-20T22:02:20Z</time>
      </trkpt>
      <trkpt lat="48.87696" lon="-0.35008">
        <ele>244</ele>
        <time>2008-11-20T22:01:49Z</time>
      </trkpt>
      <trkpt lat="48.87414" lon="-0.34863">
        <ele>225</ele>
        <time>2008-11-20T21:59:50Z</time>
      </trkpt>
      <trkpt lat="48.87306" lon="-0.34823">
        <ele>222</ele>
        <time>2008-11-20T21:59:05Z</time>
      </trkpt>
      <trkpt lat="48.87235" lon="-0.34798">
        <ele>222</ele>
        <time>2008-11-20T21:58:36Z</time>
      </trkpt>
      <trkpt lat="48.87165" lon="-0.34785">
        <ele>221</ele>
        <time>2008-11-20T21:58:08Z</time>
      </trkpt>
      <trkpt lat="48.87011" lon="-0.34786">
        <ele>219</ele>
        <time>2008-11-20T21:57:06Z</time>
      </trkpt>
      <trkpt lat="48.86955" lon="-0.34744">
        <ele>219</ele>
        <time>2008-11-20T21:56:41Z</time>
      </trkpt>
      <trkpt lat="48.86892" lon="-0.3478">
        <ele>218</ele>
        <time>2008-11-20T21:56:14Z</time>
      </trkpt>
      <trkpt lat="48.86843" lon="-0.34782">
        <ele>217</ele>
        <time>2008-11-20T21:55:55Z</time>
      </trkpt>
      <trkpt lat="48.86741" lon="-0.34863">
        <ele>217</ele>
        <time>2008-11-20T21:55:09Z</time>
      </trkpt>
      <trkpt lat="48.86668" lon="-0.35067">
        <ele>211</ele>
        <time>2008-11-20T21:54:07Z</time>
      </trkpt>
      <trkpt lat="48.86634" lon="-0.35173">
        <ele>208</ele>
        <time>2008-11-20T21:53:36Z</time>
      </trkpt>
      <trkpt lat="48.86547" lon="-0.35264">
        <ele>198</ele>
        <time>2008-11-20T21:52:54Z</time>
      </trkpt>
      <trkpt lat="48.86436" lon="-0.35371">
        <ele>184</ele>
        <time>2008-11-20T21:52:01Z</time>
      </trkpt>
      <trkpt lat="48.8634" lon="-0.35452">
        <ele>178</ele>
        <time>2008-11-20T21:51:17Z</time>
      </trkpt>
      <trkpt lat="48.86255" lon="-0.3553">
        <ele>175</ele>
        <time>2008-11-20T21:50:38Z</time>
      </trkpt>
      <trkpt lat="48.86214" lon="-0.35584">
        <ele>172</ele>
        <time>2008-11-20T21:50:16Z</time>
      </trkpt>
      <trkpt lat="48.86196" lon="-0.35743">
        <ele>165</ele>
        <time>2008-11-20T21:49:33Z</time>
      </trkpt>
      <trkpt lat="48.86133" lon="-0.35879">
        <ele>158</ele>
        <time>2008-11-20T21:48:50Z</time>
      </trkpt>
      <trkpt lat="48.8607" lon="-0.36014">
        <ele>156</ele>
        <time>2008-11-20T21:48:06Z</time>
      </trkpt>
      <trkpt lat="48.85999" lon="-0.36123">
        <ele>147</ele>
        <time>2008-11-20T21:47:26Z</time>
      </trkpt>
      <trkpt lat="48.85953" lon="-0.36138">
        <ele>144</ele>
        <time>2008-11-20T21:47:07Z</time>
      </trkpt>
      <trkpt lat="48.85894" lon="-0.36195">
        <ele>137</ele>
        <time>2008-11-20T21:46:39Z</time>
      </trkpt>
      <trkpt lat="48.85862" lon="-0.36237">
        <ele>131</ele>
        <time>2008-11-20T21:46:22Z</time>
      </trkpt>
      <trkpt lat="48.85825" lon="-0.36248">
        <ele>121</ele>
        <time>2008-11-20T21:46:07Z</time>
      </trkpt>
      <trkpt lat="48.85811" lon="-0.36212">
        <ele>120</ele>
        <time>2008-11-20T21:45:56Z</time>
      </trkpt>
      <trkpt lat="48.85796" lon="-0.36142">
        <ele>115</ele>
        <time>2008-11-20T21:45:37Z</time>
      </trkpt>
      <trkpt lat="48.85764" lon="-0.36158">
        <ele>110</ele>
        <time>2008-11-20T21:45:23Z</time>
      </trkpt>
      <trkpt lat="48.8576" lon="-0.36201">
        <ele>109</ele>
        <time>2008-11-20T21:45:12Z</time>
      </trkpt>
      <trkpt lat="48.85722" lon="-0.36234">
        <ele>111</ele>
        <time>2008-11-20T21:44:54Z</time>
      </trkpt>
      <trkpt lat="48.85703" lon="-0.36306">
        <ele>108</ele>
        <time>2008-11-20T21:44:34Z</time>
      </trkpt>
      <trkpt lat="48.85686" lon="-0.36448">
        <ele>90</ele>
        <time>2008-11-20T21:43:56Z</time>
      </trkpt>
      <trkpt lat="48.8566" lon="-0.36603">
        <ele>101</ele>
        <time>2008-11-20T21:43:14Z</time>
      </trkpt>
      <trkpt lat="48.85604" lon="-0.36768">
        <ele>107</ele>
        <time>2008-11-20T21:42:25Z</time>
      </trkpt>
      <trkpt lat="48.85546" lon="-0.36977">
        <ele>107</ele>
        <time>2008-11-20T21:41:25Z</time>
      </trkpt>
      <trkpt lat="48.85489" lon="-0.3697">
        <ele>103</ele>
        <time>2008-11-20T21:41:02Z</time>
      </trkpt>
      <trkpt lat="48.85437" lon="-0.3698">
        <ele>102</ele>
        <time>2008-11-20T21:40:41Z</time>
      </trkpt>
      <trkpt lat="48.85394" lon="-0.36991">
        <ele>101</ele>
        <time>2008-11-20T21:40:24Z</time>
      </trkpt>
      <trkpt lat="48.85362" lon="-0.37033">
        <ele>99</ele>
        <time>2008-11-20T21:40:07Z</time>
      </trkpt>
      <trkpt lat="48.85349" lon="-0.37084">
        <ele>98</ele>
        <time>2008-11-20T21:39:52Z</time>
      </trkpt>
      <trkpt lat="48.85272" lon="-0.3708">
        <ele>98</ele>
        <time>2008-11-20T21:39:22Z</time>
      </trkpt>
      <trkpt lat="48.85213" lon="-0.37055">
        <ele>96</ele>
        <time>2008-11-20T21:38:57Z</time>
      </trkpt>
      <trkpt lat="48.852" lon="-0.36968">
        <ele>92</ele>
        <time>2008-11-20T21:38:33Z</time>
      </trkpt>
      <trkpt lat="48.85203" lon="-0.36843">
        <ele>89</ele>
        <time>2008-11-20T21:38:00Z</time>
      </trkpt>
      <trkpt lat="48.85194" lon="-0.36747">
        <ele>87</ele>
        <time>2008-11-20T21:37:35Z</time>
      </trkpt>
      <trkpt lat="48.8516" lon="-0.36724">
        <ele>82</ele>
        <time>2008-11-20T21:37:20Z</time>
      </trkpt>
      <trkpt lat="48.85102" lon="-0.3676">
        <ele>77</ele>
        <time>2008-11-20T21:36:55Z</time>
      </trkpt>
      <trkpt lat="48.85071" lon="-0.36762">
        <ele>75</ele>
        <time>2008-11-20T21:36:42Z</time>
      </trkpt>
      <trkpt lat="48.8503" lon="-0.36812">
        <ele>71</ele>
        <time>2008-11-20T21:36:21Z</time>
      </trkpt>
      <trkpt lat="48.84972" lon="-0.36697">
        <ele>66</ele>
        <time>2008-11-20T21:35:43Z</time>
      </trkpt>
      <trkpt lat="48.84911" lon="-0.36624">
        <ele>66</ele>
        <time>2008-11-20T21:35:12Z</time>
      </trkpt>
      <trkpt lat="48.84904" lon="-0.3658">
        <ele>65</ele>
        <time>2008-11-20T21:35:00Z</time>
      </trkpt>
      <trkpt lat="48.84923" lon="-0.36473">
        <ele>63</ele>
        <time>2008-11-20T21:34:31Z</time>
      </trkpt>
      <trkpt lat="48.84975" lon="-0.36333">
        <ele>56</ele>
        <time>2008-11-20T21:33:49Z</time>
      </trkpt>
      <trkpt lat="48.85054" lon="-0.36376">
        <ele>56</ele>
        <time>2008-11-20T21:33:15Z</time>
      </trkpt>
      <trkpt lat="48.85113" lon="-0.36405">
        <ele>58</ele>
        <time>2008-11-20T21:32:50Z</time>
      </trkpt>
      <trkpt lat="48.85178" lon="-0.36422">
        <ele>64</ele>
        <time>2008-11-20T21:32:24Z</time>
      </trkpt>
      <trkpt lat="48.85239" lon="-0.36412">
        <ele>69</ele>
        <time>2008-11-20T21:32:00Z</time>
      </trkpt>
      <trkpt lat="48.85289" lon="-0.36328">
        <ele>70</ele>
        <time>2008-11-20T21:31:30Z</time>
      </trkpt>
      <trkpt lat="48.85294" lon="-0.36255">
        <ele>70</ele>
        <time>2008-11-20T21:31:10Z</time>
      </trkpt>
      <trkpt lat="48.8527" lon="-0.36145">
        <ele>76</ele>
        <time>2008-11-20T21:30:40Z</time>
      </trkpt>
      <trkpt lat="48.85225" lon="-0.36022">
        <ele>81</ele>
        <time>2008-11-20T21:30:03Z</time>
      </trkpt>
      <trkpt lat="48.85125" lon="-0.35882">
        <ele>78</ele>
        <time>2008-11-20T21:29:08Z</time>
      </trkpt>
      <trkpt lat="48.85028" lon="-0.35752">
        <ele>74</ele>
        <time>2008-11-20T21:28:17Z</time>
      </trkpt>
      <trkpt lat="48.84996" lon="-0.35629">
        <ele>74</ele>
        <time>2008-11-20T21:27:42Z</time>
      </trkpt>
      <trkpt lat="48.85016" lon="-0.35518">
        <ele>75</ele>
        <time>2008-11-20T21:27:11Z</time>
      </trkpt>
      <trkpt lat="48.85055" lon="-0.35377">
        <ele>78</ele>
        <time>2008-11-20T21:26:31Z</time>
      </trkpt>
      <trkpt lat="48.85067" lon="-0.35222">
        <ele>82</ele>
        <time>2008-11-20T21:25:50Z</time>
      </trkpt>
      <trkpt lat="48.85061" lon="-0.35113">
        <ele>82</ele>
        <time>2008-11-20T21:25:21Z</time>
      </trkpt>
      <trkpt lat="48.85073" lon="-0.3495">
        <ele>77</ele>
        <time>2008-11-20T21:24:38Z</time>
      </trkpt>
      <trkpt lat="48.85076" lon="-0.34803">
        <ele>75</ele>
        <time>2008-11-20T21:23:59Z</time>
      </trkpt>
      <trkpt lat="48.85093" lon="-0.34713">
        <ele>74</ele>
        <time>2008-11-20T21:23:35Z</time>
      </trkpt>
      <trkpt lat="48.8512" lon="-0.34628">
        <ele>83</ele>
        <time>2008-11-20T21:23:10Z</time>
      </trkpt>
      <trkpt lat="48.85122" lon="-0.34532">
        <ele>90</ele>
        <time>2008-11-20T21:22:45Z</time>
      </trkpt>
      <trkpt lat="48.85093" lon="-0.34457">
        <ele>83</ele>
        <time>2008-11-20T21:22:22Z</time>
      </trkpt>
      <trkpt lat="48.85052" lon="-0.34351">
        <ele>83</ele>
        <time>2008-11-20T21:21:49Z</time>
      </trkpt>
      <trkpt lat="48.85002" lon="-0.34314">
        <ele>81</ele>
        <time>2008-11-20T21:21:27Z</time>
      </trkpt>
      <trkpt lat="48.84946" lon="-0.34251">
        <ele>83</ele>
        <time>2008-11-20T21:20:59Z</time>
      </trkpt>
      <trkpt lat="48.84933" lon="-0.34239">
        <ele>79.296875</ele>
      </trkpt>
      <trkpt lat="48.84936" lon="-0.34233">
        <ele>79.7617188</ele>
      </trkpt>
      <trkpt lat="48.8494" lon="-0.3423">
        <ele>80.15625</ele>
      </trkpt>
      <trkpt lat="48.84943" lon="-0.34226">
        <ele>80.6015625</ele>
      </trkpt>
      <trkpt lat="48.84948" lon="-0.34222">
        <ele>81.0117188</ele>
      </trkpt>
      <trkpt lat="48.84952" lon="-0.34218">
        <ele>81.3984375</ele>
      </trkpt>
      <trkpt lat="48.84955" lon="-0.34213">
        <ele>81.8320313</ele>
      </trkpt>
      <trkpt lat="48.84958" lon="-0.34209">
        <ele>82.234375</ele>
      </trkpt>
      <trkpt lat="48.84962" lon="-0.34205">
        <ele>82.5703125</ele>
      </trkpt>
      <trkpt lat="48.84967" lon="-0.34201">
        <ele>82.9804688</ele>
      </trkpt>
      <trkpt lat="48.84971" lon="-0.34196">
        <ele>83.4414063</ele>
      </trkpt>
      <trkpt lat="48.84975" lon="-0.34192">
        <ele>83.8242188</ele>
      </trkpt>
      <trkpt lat="48.84979" lon="-0.34189">
        <ele>84.1328125</ele>
      </trkpt>
      <trkpt lat="48.84984" lon="-0.34187">
        <ele>84.4023438</ele>
      </trkpt>
      <trkpt lat="48.84989" lon="-0.34184">
        <ele>84.6445313</ele>
      </trkpt>
      <trkpt lat="48.84993" lon="-0.3418">
        <ele>84.9101563</ele>
      </trkpt>
      <trkpt lat="48.84996" lon="-0.34176">
        <ele>85.1367188</ele>
      </trkpt>
      <trkpt lat="48.85" lon="-0.34172">
        <ele>85.3671875</ele>
      </trkpt>
      <trkpt lat="48.85004" lon="-0.34169">
        <ele>85.4921875</ele>
      </trkpt>
      <trkpt lat="48.85009" lon="-0.34165">
        <ele>85.640625</ele>
      </trkpt>
      <trkpt lat="48.85014" lon="-0.34162">
        <ele>85.734375</ele>
      </trkpt>
      <trkpt lat="48.85019" lon="-0.3416">
        <ele>85.765625</ele>
      </trkpt>
      <trkpt lat="48.85024" lon="-0.34156">
        <ele>85.8164063</ele>
      </trkpt>
      <trkpt lat="48.85028" lon="-0.34153">
        <ele>85.9570313</ele>
      </trkpt>
      <trkpt lat="48.85031" lon="-0.34148">
        <ele>86.1015625</ele>
      </trkpt>
      <trkpt lat="48.85035" lon="-0.34144">
        <ele>86.3789063</ele>
      </trkpt>
      <trkpt lat="48.85039" lon="-0.34139">
        <ele>86.8320313</ele>
      </trkpt>
      <trkpt lat="48.85043" lon="-0.34135">
        <ele>87.1523438</ele>
      </trkpt>
      <trkpt lat="48.85048" lon="-0.34132">
        <ele>87.3554688</ele>
      </trkpt>
      <trkpt lat="48.85052" lon="-0.34129">
        <ele>87.5390625</ele>
      </trkpt>
      <trkpt lat="48.85057" lon="-0.34124">
        <ele>87.8476563</ele>
      </trkpt>
      <trkpt lat="48.85061" lon="-0.3412">
        <ele>88.078125</ele>
      </trkpt>
      <trkpt lat="48.85064" lon="-0.34114">
        <ele>88.3125</ele>
      </trkpt>
      <trkpt lat="48.8507" lon="-0.34113">
        <ele>88.3359375</ele>
      </trkpt>
      <trkpt lat="48.85075" lon="-0.34111">
        <ele>88.3359375</ele>
      </trkpt>
      <trkpt lat="48.8508" lon="-0.34109">
        <ele>88.3789063</ele>
      </trkpt>
      <trkpt lat="48.85084" lon="-0.34106">
        <ele>88.8984375</ele>
      </trkpt>
      <trkpt lat="48.85087" lon="-0.34101">
        <ele>89.3984375</ele>
      </trkpt>
      <trkpt lat="48.85091" lon="-0.34097">
        <ele>89.8789063</ele>
      </trkpt>
      <trkpt lat="48.85095" lon="-0.34094">
        <ele>90.34375</ele>
      </trkpt>
      <trkpt lat="48.851" lon="-0.3409">
        <ele>90.8828125</ele>
      </trkpt>
      <trkpt lat="48.85104" lon="-0.34085">
        <ele>91.4335938</ele>
      </trkpt>
      <trkpt lat="48.85108" lon="-0.34081">
        <ele>91.9140625</ele>
      </trkpt>
      <trkpt lat="48.85111" lon="-0.34077">
        <ele>92.2734375</ele>
      </trkpt>
      <trkpt lat="48.85116" lon="-0.34074">
        <ele>92.6210938</ele>
      </trkpt>
      <trkpt lat="48.8512" lon="-0.34069">
        <ele>92.9023438</ele>
      </trkpt>
      <trkpt lat="48.85122" lon="-0.34067">
        <ele>93.0234375</ele>
      </trkpt>
      <trkpt lat="48.85124" lon="-0.34068">
        <ele>93.078125</ele>
      </trkpt>
      <trkpt lat="48.8513" lon="-0.34066">
        <ele>93.3710938</ele>
      </trkpt>
      <trkpt lat="48.85136" lon="-0.34061">
        <ele>93.6367188</ele>
      </trkpt>
      <trkpt lat="48.85141" lon="-0.34061">
        <ele>94.4375</ele>
      </trkpt>
      <trkpt lat="48.85145" lon="-0.34059">
        <ele>95.1171875</ele>
      </trkpt>
      <trkpt lat="48.8515" lon="-0.34056">
        <ele>95.8710938</ele>
      </trkpt>
      <trkpt lat="48.85154" lon="-0.34055">
        <ele>96.578125</ele>
      </trkpt>
      <trkpt lat="48.85159" lon="-0.34053">
        <ele>97.28125</ele>
      </trkpt>
      <trkpt lat="48.85163" lon="-0.34052">
        <ele>97.984375</ele>
      </trkpt>
      <trkpt lat="48.85168" lon="-0.34053">
        <ele>98.7265625</ele>
      </trkpt>
      <trkpt lat="48.85173" lon="-0.34053">
        <ele>99.5390625</ele>
      </trkpt>
      <trkpt lat="48.85177" lon="-0.34053">
        <ele>100.2539063</ele>
      </trkpt>
      <trkpt lat="48.85182" lon="-0.34051">
        <ele>100.9492188</ele>
      </trkpt>
      <trkpt lat="48.85187" lon="-0.34048">
        <ele>101.6914063</ele>
      </trkpt>
      <trkpt lat="48.85191" lon="-0.34045">
        <ele>102.3242188</ele>
      </trkpt>
      <trkpt lat="48.85195" lon="-0.34042">
        <ele>102.7695313</ele>
      </trkpt>
      <trkpt lat="48.852" lon="-0.34039">
        <ele>103.34375</ele>
      </trkpt>
      <trkpt lat="48.85206" lon="-0.34033">
        <ele>104.0273438</ele>
      </trkpt>
      <trkpt lat="48.85211" lon="-0.34032">
        <ele>104.6015625</ele>
      </trkpt>
      <trkpt lat="48.85215" lon="-0.34028">
        <ele>105.1445313</ele>
      </trkpt>
      <trkpt lat="48.85219" lon="-0.34025">
        <ele>105.6953125</ele>
      </trkpt>
      <trkpt lat="48.85223" lon="-0.34025">
        <ele>106.2734375</ele>
      </trkpt>
      <trkpt lat="48.85228" lon="-0.34022">
        <ele>106.8945313</ele>
      </trkpt>
      <trkpt lat="48.85232" lon="-0.34018">
        <ele>107.4765625</ele>
      </trkpt>
      <trkpt lat="48.85235" lon="-0.34013">
        <ele>108.015625</ele>
      </trkpt>
      <trkpt lat="48.85239" lon="-0.34009">
        <ele>108.6171875</ele>
      </trkpt>
      <trkpt lat="48.85244" lon="-0.34007">
        <ele>109.3242188</ele>
      </trkpt>
      <trkpt lat="48.85249" lon="-0.34002">
        <ele>110.03125</ele>
      </trkpt>
      <trkpt lat="48.85252" lon="-0.33997">
        <ele>110.609375</ele>
      </trkpt>
      <trkpt lat="48.85256" lon="-0.33992">
        <ele>111.1640625</ele>
      </trkpt>
      <trkpt lat="48.8526" lon="-0.33987">
        <ele>111.6835938</ele>
      </trkpt>
      <trkpt lat="48.85263" lon="-0.33982">
        <ele>112.1328125</ele>
      </trkpt>
      <trkpt lat="48.85266" lon="-0.33977">
        <ele>112.5585938</ele>
      </trkpt>
      <trkpt lat="48.8527" lon="-0.33972">
        <ele>112.9296875</ele>
      </trkpt>
      <trkpt lat="48.85274" lon="-0.33966">
        <ele>113.2773438</ele>
      </trkpt>
      <trkpt lat="48.85275" lon="-0.3396">
        <ele>113.3867188</ele>
      </trkpt>
      <trkpt lat="48.85278" lon="-0.33954">
        <ele>113.6210938</ele>
      </trkpt>
      <trkpt lat="48.8528" lon="-0.33947">
        <ele>113.7304688</ele>
      </trkpt>
      <trkpt lat="48.8528" lon="-0.33941">
        <ele>113.6132813</ele>
      </trkpt>
      <trkpt lat="48.85282" lon="-0.33934">
        <ele>113.7226563</ele>
      </trkpt>
      <trkpt lat="48.85282" lon="-0.33928">
        <ele>113.6640625</ele>
      </trkpt>
      <trkpt lat="48.85284" lon="-0.33922">
        <ele>113.7148438</ele>
      </trkpt>
      <trkpt lat="48.85287" lon="-0.33916">
        <ele>113.8203125</ele>
      </trkpt>
      <trkpt lat="48.85286" lon="-0.3391">
        <ele>113.4140625</ele>
      </trkpt>
      <trkpt lat="48.85287" lon="-0.33903">
        <ele>113.3320313</ele>
      </trkpt>
      <trkpt lat="48.8529" lon="-0.33897">
        <ele>113.3125</ele>
      </trkpt>
      <trkpt lat="48.8529" lon="-0.33891">
        <ele>113.0546875</ele>
      </trkpt>
      <trkpt lat="48.85292" lon="-0.33884">
        <ele>112.9296875</ele>
      </trkpt>
      <trkpt lat="48.85294" lon="-0.33878">
        <ele>112.8671875</ele>
      </trkpt>
      <trkpt lat="48.85297" lon="-0.33872">
        <ele>112.796875</ele>
      </trkpt>
      <trkpt lat="48.85301" lon="-0.33869">
        <ele>112.9921875</ele>
      </trkpt>
      <trkpt lat="48.85305" lon="-0.33866">
        <ele>113.421875</ele>
      </trkpt>
      <trkpt lat="48.8531" lon="-0.33864">
        <ele>113.859375</ele>
      </trkpt>
      <trkpt lat="48.85314" lon="-0.33863">
        <ele>114.2773438</ele>
      </trkpt>
      <trkpt lat="48.85319" lon="-0.33863">
        <ele>114.7226563</ele>
      </trkpt>
      <trkpt lat="48.85324" lon="-0.33863">
        <ele>115.1367188</ele>
      </trkpt>
      <trkpt lat="48.85328" lon="-0.33863">
        <ele>115.53125</ele>
      </trkpt>
      <trkpt lat="48.85333" lon="-0.33863">
        <ele>115.984375</ele>
      </trkpt>
      <trkpt lat="48.85339" lon="-0.33861">
        <ele>116.4960938</ele>
      </trkpt>
      <trkpt lat="48.85344" lon="-0.33861">
        <ele>116.953125</ele>
      </trkpt>
      <trkpt lat="48.85348" lon="-0.3386">
        <ele>117.3789063</ele>
      </trkpt>
      <trkpt lat="48.85353" lon="-0.3386">
        <ele>117.7851563</ele>
      </trkpt>
      <trkpt lat="48.85357" lon="-0.3386">
        <ele>118.1796875</ele>
      </trkpt>
      <trkpt lat="48.85362" lon="-0.33857">
        <ele>118.5664063</ele>
      </trkpt>
      <trkpt lat="48.85367" lon="-0.33855">
        <ele>118.9023438</ele>
      </trkpt>
      <trkpt lat="48.85371" lon="-0.33854">
        <ele>119.2226563</ele>
      </trkpt>
      <trkpt lat="48.85376" lon="-0.33852">
        <ele>119.5703125</ele>
      </trkpt>
      <trkpt lat="48.8538" lon="-0.3385">
        <ele>119.890625</ele>
      </trkpt>
      <trkpt lat="48.85385" lon="-0.33847">
        <ele>120.2539063</ele>
      </trkpt>
      <trkpt lat="48.85389" lon="-0.33842">
        <ele>120.5195313</ele>
      </trkpt>
      <trkpt lat="48.85393" lon="-0.33837">
        <ele>120.8046875</ele>
      </trkpt>
      <trkpt lat="48.85397" lon="-0.33833">
        <ele>121.0507813</ele>
      </trkpt>
      <trkpt lat="48.854" lon="-0.33828">
        <ele>121.2617188</ele>
      </trkpt>
      <trkpt lat="48.85402" lon="-0.33821">
        <ele>121.390625</ele>
      </trkpt>
      <trkpt lat="48.85403" lon="-0.33815">
        <ele>121.5117188</ele>
      </trkpt>
      <trkpt lat="48.85406" lon="-0.33809">
        <ele>121.9296875</ele>
      </trkpt>
      <trkpt lat="48.85409" lon="-0.33804">
        <ele>122.4765625</ele>
      </trkpt>
      <trkpt lat="48.85411" lon="-0.33798">
        <ele>123.0117188</ele>
      </trkpt>
      <trkpt lat="48.85413" lon="-0.33791">
        <ele>123.6445313</ele>
      </trkpt>
      <trkpt lat="48.85414" lon="-0.33784">
        <ele>124.2421875</ele>
      </trkpt>
      <trkpt lat="48.85416" lon="-0.33776">
        <ele>124.9921875</ele>
      </trkpt>
      <trkpt lat="48.85419" lon="-0.3377">
        <ele>125.6640625</ele>
      </trkpt>
      <trkpt lat="48.85421" lon="-0.33763">
        <ele>126.2265625</ele>
      </trkpt>
      <trkpt lat="48.85421" lon="-0.33756">
        <ele>126.703125</ele>
      </trkpt>
      <trkpt lat="48.85423" lon="-0.3375">
        <ele>127.3476563</ele>
      </trkpt>
      <trkpt lat="48.85426" lon="-0.33745">
        <ele>128.0078125</ele>
      </trkpt>
      <trkpt lat="48.85429" lon="-0.3374">
        <ele>128.59375</ele>
      </trkpt>
      <trkpt lat="48.85433" lon="-0.33737">
        <ele>129.0898438</ele>
      </trkpt>
      <trkpt lat="48.85437" lon="-0.33732">
        <ele>129.6601563</ele>
      </trkpt>
      <trkpt lat="48.85439" lon="-0.33725">
        <ele>130.2578125</ele>
      </trkpt>
      <trkpt lat="48.85443" lon="-0.33721">
        <ele>130.7382813</ele>
      </trkpt>
      <trkpt lat="48.85446" lon="-0.33716">
        <ele>131.265625</ele>
      </trkpt>
      <trkpt lat="48.8545" lon="-0.33711">
        <ele>131.75</ele>
      </trkpt>
      <trkpt lat="48.85455" lon="-0.33704">
        <ele>132.3632813</ele>
      </trkpt>
      <trkpt lat="48.85464" lon="-0.337">
        <ele>132.8984375</ele>
      </trkpt>
      <trkpt lat="48.85469" lon="-0.33695">
        <ele>133.1796875</ele>
      </trkpt>
      <trkpt lat="48.85473" lon="-0.33692">
        <ele>133.3984375</ele>
      </trkpt>
      <trkpt lat="48.85477" lon="-0.33687">
        <ele>133.6328125</ele>
      </trkpt>
      <trkpt lat="48.85487" lon="-0.33686">
        <ele>134.0898438</ele>
      </trkpt>
      <trkpt lat="48.85491" lon="-0.33683">
        <ele>134.3398438</ele>
      </trkpt>
      <trkpt lat="48.85496" lon="-0.33681">
        <ele>134.5625</ele>
      </trkpt>
      <trkpt lat="48.855" lon="-0.3368">
        <ele>134.7929688</ele>
      </trkpt>
      <trkpt lat="48.85505" lon="-0.33676">
        <ele>135.1015625</ele>
      </trkpt>
      <trkpt lat="48.8551" lon="-0.33673">
        <ele>135.4257813</ele>
      </trkpt>
      <trkpt lat="48.85514" lon="-0.3367">
        <ele>135.7148438</ele>
      </trkpt>
      <trkpt lat="48.85519" lon="-0.33668">
        <ele>136.0117188</ele>
      </trkpt>
      <trkpt lat="48.85523" lon="-0.33664">
        <ele>136.3398438</ele>
      </trkpt>
      <trkpt lat="48.85528" lon="-0.33661">
        <ele>136.9023438</ele>
      </trkpt>
      <trkpt lat="48.85534" lon="-0.33659">
        <ele>137.4179688</ele>
      </trkpt>
      <trkpt lat="48.85539" lon="-0.33657">
        <ele>137.8632813</ele>
      </trkpt>
      <trkpt lat="48.85543" lon="-0.33656">
        <ele>138.2539063</ele>
      </trkpt>
      <trkpt lat="48.85548" lon="-0.33656">
        <ele>138.6210938</ele>
      </trkpt>
      <trkpt lat="48.85552" lon="-0.33655">
        <ele>139</ele>
      </trkpt>
      <trkpt lat="48.85557" lon="-0.33654">
        <ele>139.3984375</ele>
      </trkpt>
      <trkpt lat="48.85562" lon="-0.33652">
        <ele>139.7890625</ele>
      </trkpt>
      <trkpt lat="48.85567" lon="-0.33652">
        <ele>140.1757813</ele>
      </trkpt>
      <trkpt lat="48.85571" lon="-0.33651">
        <ele>140.5117188</ele>
      </trkpt>
      <trkpt lat="48.85576" lon="-0.33649">
        <ele>140.8242188</ele>
      </trkpt>
      <trkpt lat="48.8558" lon="-0.33646">
        <ele>141.0664063</ele>
      </trkpt>
      <trkpt lat="48.85584" lon="-0.33642">
        <ele>141.3242188</ele>
      </trkpt>
      <trkpt lat="48.85589" lon="-0.33638">
        <ele>141.5585938</ele>
      </trkpt>
      <trkpt lat="48.85593" lon="-0.33636">
        <ele>141.8125</ele>
      </trkpt>
      <trkpt lat="48.85599" lon="-0.33634">
        <ele>142.1367188</ele>
      </trkpt>
      <trkpt lat="48.85604" lon="-0.33631">
        <ele>142.3867188</ele>
      </trkpt>
      <trkpt lat="48.8561" lon="-0.33627">
        <ele>142.6992188</ele>
      </trkpt>
      <trkpt lat="48.85615" lon="-0.33624">
        <ele>142.9453125</ele>
      </trkpt>
      <trkpt lat="48.85619" lon="-0.33622">
        <ele>143.15625</ele>
      </trkpt>
      <trkpt lat="48.85623" lon="-0.33618">
        <ele>143.3085938</ele>
      </trkpt>
      <trkpt lat="48.85628" lon="-0.33614">
        <ele>143.4375</ele>
      </trkpt>
      <trkpt lat="48.85633" lon="-0.33611">
        <ele>143.6289063</ele>
      </trkpt>
      <trkpt lat="48.85638" lon="-0.33609">
        <ele>143.8320313</ele>
      </trkpt>
      <trkpt lat="48.85642" lon="-0.33605">
        <ele>143.9609375</ele>
      </trkpt>
      <trkpt lat="48.85648" lon="-0.33602">
        <ele>144.1328125</ele>
      </trkpt>
      <trkpt lat="48.85652" lon="-0.336">
        <ele>144.28125</ele>
      </trkpt>
      <trkpt lat="48.85655" lon="-0.33594">
        <ele>144.2421875</ele>
      </trkpt>
      <trkpt lat="48.85658" lon="-0.33588">
        <ele>144.1835938</ele>
      </trkpt>
      <trkpt lat="48.85661" lon="-0.33582">
        <ele>144.21875</ele>
      </trkpt>
      <trkpt lat="48.85665" lon="-0.33577">
        <ele>144.2773438</ele>
      </trkpt>
      <trkpt lat="48.85668" lon="-0.33572">
        <ele>144.28125</ele>
      </trkpt>
      <trkpt lat="48.85672" lon="-0.33568">
        <ele>144.359375</ele>
      </trkpt>
      <trkpt lat="48.85676" lon="-0.33562">
        <ele>144.3632813</ele>
      </trkpt>
      <trkpt lat="48.8568" lon="-0.33559">
        <ele>144.3945313</ele>
      </trkpt>
      <trkpt lat="48.85684" lon="-0.33553">
        <ele>144.4140625</ele>
      </trkpt>
      <trkpt lat="48.85688" lon="-0.33548">
        <ele>144.3828125</ele>
      </trkpt>
      <trkpt lat="48.85691" lon="-0.33542">
        <ele>144.3046875</ele>
      </trkpt>
      <trkpt lat="48.85695" lon="-0.33536">
        <ele>144.3828125</ele>
      </trkpt>
      <trkpt lat="48.85699" lon="-0.33533">
        <ele>144.5507813</ele>
      </trkpt>
      <trkpt lat="48.85703" lon="-0.33527">
        <ele>144.6601563</ele>
      </trkpt>
      <trkpt lat="48.85707" lon="-0.33524">
        <ele>144.8085938</ele>
      </trkpt>
      <trkpt lat="48.85713" lon="-0.33511">
        <ele>144.5859375</ele>
      </trkpt>
      <trkpt lat="48.85717" lon="-0.33506">
        <ele>144.6132813</ele>
      </trkpt>
      <trkpt lat="48.85719" lon="-0.335">
        <ele>144.515625</ele>
      </trkpt>
      <trkpt lat="48.85722" lon="-0.33495">
        <ele>144.4375</ele>
      </trkpt>
      <trkpt lat="48.85725" lon="-0.33489">
        <ele>144.3164063</ele>
      </trkpt>
      <trkpt lat="48.85727" lon="-0.33484">
        <ele>144.2226563</ele>
      </trkpt>
      <trkpt lat="48.8573" lon="-0.33478">
        <ele>144.1171875</ele>
      </trkpt>
      <trkpt lat="48.85731" lon="-0.33471">
        <ele>144.046875</ele>
      </trkpt>
      <trkpt lat="48.85731" lon="-0.33464">
        <ele>143.9179688</ele>
      </trkpt>
      <trkpt lat="48.85731" lon="-0.33457">
        <ele>143.8398438</ele>
      </trkpt>
      <trkpt lat="48.85733" lon="-0.3345">
        <ele>143.7851563</ele>
      </trkpt>
      <trkpt lat="48.85732" lon="-0.33443">
        <ele>143.640625</ele>
      </trkpt>
      <trkpt lat="48.85731" lon="-0.33437">
        <ele>143.453125</ele>
      </trkpt>
      <trkpt lat="48.8573" lon="-0.3343">
        <ele>143.2617188</ele>
      </trkpt>
      <trkpt lat="48.8573" lon="-0.33423">
        <ele>143.1289063</ele>
      </trkpt>
      <trkpt lat="48.8573" lon="-0.33416">
        <ele>142.9882813</ele>
      </trkpt>
      <trkpt lat="48.85731" lon="-0.33409">
        <ele>142.8515625</ele>
      </trkpt>
      <trkpt lat="48.85731" lon="-0.33402">
        <ele>142.6875</ele>
      </trkpt>
      <trkpt lat="48.8573" lon="-0.33395">
        <ele>142.484375</ele>
      </trkpt>
      <trkpt lat="48.85729" lon="-0.33389">
        <ele>142.2734375</ele>
      </trkpt>
      <trkpt lat="48.85729" lon="-0.33382">
        <ele>142.109375</ele>
      </trkpt>
      <trkpt lat="48.85728" lon="-0.33374">
        <ele>141.8789063</ele>
      </trkpt>
      <trkpt lat="48.85727" lon="-0.33367">
        <ele>141.546875</ele>
      </trkpt>
      <trkpt lat="48.85727" lon="-0.33359">
        <ele>141</ele>
      </trkpt>
      <trkpt lat="48.85725" lon="-0.33352">
        <ele>140.4414063</ele>
      </trkpt>
      <trkpt lat="48.85724" lon="-0.33345">
        <ele>139.9570313</ele>
      </trkpt>
      <trkpt lat="48.85722" lon="-0.33339">
        <ele>139.4335938</ele>
      </trkpt>
      <trkpt lat="48.85721" lon="-0.33333">
        <ele>138.9609375</ele>
      </trkpt>
      <trkpt lat="48.85718" lon="-0.33325">
        <ele>138.3046875</ele>
      </trkpt>
      <trkpt lat="48.85716" lon="-0.33319">
        <ele>137.7421875</ele>
      </trkpt>
      <trkpt lat="48.85713" lon="-0.33311">
        <ele>137.171875</ele>
      </trkpt>
      <trkpt lat="48.85712" lon="-0.33304">
        <ele>136.7929688</ele>
      </trkpt>
      <trkpt lat="48.8571" lon="-0.33297">
        <ele>136.328125</ele>
      </trkpt>
      <trkpt lat="48.85708" lon="-0.33291">
        <ele>135.90625</ele>
      </trkpt>
      <trkpt lat="48.85706" lon="-0.33283">
        <ele>135.421875</ele>
      </trkpt>
      <trkpt lat="48.85705" lon="-0.33276">
        <ele>134.984375</ele>
      </trkpt>
      <trkpt lat="48.85704" lon="-0.33269">
        <ele>134.6015625</ele>
      </trkpt>
      <trkpt lat="48.85703" lon="-0.33262">
        <ele>134.1523438</ele>
      </trkpt>
      <trkpt lat="48.85698" lon="-0.33242">
        <ele>132.6757813</ele>
      </trkpt>
      <trkpt lat="48.85693" lon="-0.33233">
        <ele>131.8945313</ele>
      </trkpt>
      <trkpt lat="48.85692" lon="-0.33227">
        <ele>131.4570313</ele>
      </trkpt>
      <trkpt lat="48.85691" lon="-0.3322">
        <ele>131.0195313</ele>
      </trkpt>
      <trkpt lat="48.8569" lon="-0.33213">
        <ele>130.6015625</ele>
      </trkpt>
      <trkpt lat="48.85689" lon="-0.33207">
        <ele>130.1835938</ele>
      </trkpt>
      <trkpt lat="48.85688" lon="-0.33199">
        <ele>129.6210938</ele>
      </trkpt>
      <trkpt lat="48.85688" lon="-0.33193">
        <ele>128.9921875</ele>
      </trkpt>
      <trkpt lat="48.85688" lon="-0.33185">
        <ele>128.3398438</ele>
      </trkpt>
      <trkpt lat="48.85688" lon="-0.33179">
        <ele>127.7460938</ele>
      </trkpt>
      <trkpt lat="48.85692" lon="-0.33148">
        <ele>125.2890625</ele>
      </trkpt>
      <trkpt lat="48.85692" lon="-0.33148">
        <ele>125.2890625</ele>
      </trkpt>
      <trkpt lat="48.85694" lon="-0.33141">
        <ele>124.5390625</ele>
      </trkpt>
      <trkpt lat="48.85698" lon="-0.33135">
        <ele>124.0039063</ele>
      </trkpt>
      <trkpt lat="48.85701" lon="-0.33129">
        <ele>123.4492188</ele>
      </trkpt>
      <trkpt lat="48.85704" lon="-0.33124">
        <ele>123.0117188</ele>
      </trkpt>
      <trkpt lat="48.85707" lon="-0.33118">
        <ele>122.6445313</ele>
      </trkpt>
      <trkpt lat="48.8571" lon="-0.33113">
        <ele>122.3085938</ele>
      </trkpt>
      <trkpt lat="48.85712" lon="-0.33107">
        <ele>121.828125</ele>
      </trkpt>
      <trkpt lat="48.85714" lon="-0.33101">
        <ele>121.2421875</ele>
      </trkpt>
      <trkpt lat="48.85718" lon="-0.33091">
        <ele>120.453125</ele>
      </trkpt>
      <trkpt lat="48.85718" lon="-0.33084">
        <ele>119.6367188</ele>
      </trkpt>
      <trkpt lat="48.85719" lon="-0.33078">
        <ele>118.8359375</ele>
      </trkpt>
      <trkpt lat="48.85721" lon="-0.33071">
        <ele>118.0273438</ele>
      </trkpt>
      <trkpt lat="48.85721" lon="-0.33064">
        <ele>117.1914063</ele>
      </trkpt>
      <trkpt lat="48.85722" lon="-0.33058">
        <ele>116.359375</ele>
      </trkpt>
      <trkpt lat="48.85722" lon="-0.33051">
        <ele>115.4570313</ele>
      </trkpt>
      <trkpt lat="48.85722" lon="-0.33045">
        <ele>114.5546875</ele>
      </trkpt>
      <trkpt lat="48.85721" lon="-0.33038">
        <ele>113.5625</ele>
      </trkpt>
      <trkpt lat="48.8572" lon="-0.33031">
        <ele>112.5078125</ele>
      </trkpt>
      <trkpt lat="48.85719" lon="-0.33024">
        <ele>111.7421875</ele>
      </trkpt>
      <trkpt lat="48.85718" lon="-0.33017">
        <ele>110.9296875</ele>
      </trkpt>
      <trkpt lat="48.85718" lon="-0.33011">
        <ele>110.265625</ele>
      </trkpt>
      <trkpt lat="48.85717" lon="-0.33004">
        <ele>109.5390625</ele>
      </trkpt>
      <trkpt lat="48.85717" lon="-0.32996">
        <ele>108.8476563</ele>
      </trkpt>
      <trkpt lat="48.85716" lon="-0.32989">
        <ele>108.0898438</ele>
      </trkpt>
      <trkpt lat="48.85715" lon="-0.32982">
        <ele>107.3476563</ele>
      </trkpt>
      <trkpt lat="48.85715" lon="-0.32974">
        <ele>106.9921875</ele>
      </trkpt>
      <trkpt lat="48.85715" lon="-0.32968">
        <ele>106.8046875</ele>
      </trkpt>
      <trkpt lat="48.85715" lon="-0.32961">
        <ele>106.6171875</ele>
      </trkpt>
      <trkpt lat="48.85716" lon="-0.32955">
        <ele>106.5117188</ele>
      </trkpt>
      <trkpt lat="48.85718" lon="-0.32948">
        <ele>106.3398438</ele>
      </trkpt>
      <trkpt lat="48.8572" lon="-0.32941">
        <ele>106.1367188</ele>
      </trkpt>
      <trkpt lat="48.85723" lon="-0.32936">
        <ele>105.9921875</ele>
      </trkpt>
      <trkpt lat="48.85727" lon="-0.32933">
        <ele>105.84375</ele>
      </trkpt>
      <trkpt lat="48.85731" lon="-0.3293">
        <ele>105.625</ele>
      </trkpt>
      <trkpt lat="48.85736" lon="-0.32928">
        <ele>105.4414063</ele>
      </trkpt>
      <trkpt lat="48.8574" lon="-0.32926">
        <ele>105.2734375</ele>
      </trkpt>
      <trkpt lat="48.85745" lon="-0.32925">
        <ele>105.0703125</ele>
      </trkpt>
      <trkpt lat="48.8575" lon="-0.32924">
        <ele>105.2617188</ele>
      </trkpt>
      <trkpt lat="48.85754" lon="-0.32923">
        <ele>105.5195313</ele>
      </trkpt>
      <trkpt lat="48.85759" lon="-0.3292">
        <ele>105.8398438</ele>
      </trkpt>
      <trkpt lat="48.85764" lon="-0.32919">
        <ele>106.1210938</ele>
      </trkpt>
      <trkpt lat="48.85769" lon="-0.32916">
        <ele>106.375</ele>
      </trkpt>
      <trkpt lat="48.85773" lon="-0.32914">
        <ele>106.5976563</ele>
      </trkpt>
      <trkpt lat="48.85777" lon="-0.32911">
        <ele>106.7890625</ele>
      </trkpt>
      <trkpt lat="48.85781" lon="-0.32906">
        <ele>106.9453125</ele>
      </trkpt>
      <trkpt lat="48.85784" lon="-0.32901">
        <ele>107.0507813</ele>
      </trkpt>
      <trkpt lat="48.85788" lon="-0.32895">
        <ele>107.1328125</ele>
      </trkpt>
      <trkpt lat="48.8579" lon="-0.3289">
        <ele>107.1601563</ele>
      </trkpt>
      <trkpt lat="48.85794" lon="-0.32876">
        <ele>107.0859375</ele>
      </trkpt>
      <trkpt lat="48.85794" lon="-0.32868">
        <ele>107.1640625</ele>
      </trkpt>
      <trkpt lat="48.85796" lon="-0.3286">
        <ele>108.4414063</ele>
      </trkpt>
      <trkpt lat="48.85797" lon="-0.32854">
        <ele>109.5</ele>
      </trkpt>
      <trkpt lat="48.85797" lon="-0.32847">
        <ele>110.5585938</ele>
      </trkpt>
      <trkpt lat="48.85797" lon="-0.3284">
        <ele>111.7226563</ele>
      </trkpt>
      <trkpt lat="48.85798" lon="-0.32833">
        <ele>112.8789063</ele>
      </trkpt>
      <trkpt lat="48.85798" lon="-0.32827">
        <ele>113.8320313</ele>
      </trkpt>
      <trkpt lat="48.85792" lon="-0.32803">
        <ele>118.0117188</ele>
      </trkpt>
      <trkpt lat="48.85788" lon="-0.32798">
        <ele>118.9882813</ele>
      </trkpt>
      <trkpt lat="48.85784" lon="-0.32792">
        <ele>120.0585938</ele>
      </trkpt>
      <trkpt lat="48.85781" lon="-0.32785">
        <ele>121.2148438</ele>
      </trkpt>
      <trkpt lat="48.85778" lon="-0.3278">
        <ele>122.2539063</ele>
      </trkpt>
      <trkpt lat="48.85774" lon="-0.32775">
        <ele>123.0625</ele>
      </trkpt>
      <trkpt lat="48.8577" lon="-0.32772">
        <ele>123.6367188</ele>
      </trkpt>
      <trkpt lat="48.85766" lon="-0.32768">
        <ele>124.3125</ele>
      </trkpt>
      <trkpt lat="48.85762" lon="-0.32763">
        <ele>125.0859375</ele>
      </trkpt>
      <trkpt lat="48.85759" lon="-0.32758">
        <ele>125.9570313</ele>
      </trkpt>
      <trkpt lat="48.85757" lon="-0.32752">
        <ele>126.5234375</ele>
      </trkpt>
      <trkpt lat="48.85756" lon="-0.32745">
        <ele>127.1914063</ele>
      </trkpt>
      <trkpt lat="48.85755" lon="-0.32737">
        <ele>127.9140625</ele>
      </trkpt>
      <trkpt lat="48.85755" lon="-0.32731">
        <ele>128.5195313</ele>
      </trkpt>
      <trkpt lat="48.85754" lon="-0.32724">
        <ele>129.1757813</ele>
      </trkpt>
      <trkpt lat="48.85753" lon="-0.32716">
        <ele>129.8242188</ele>
      </trkpt>
      <trkpt lat="48.85753" lon="-0.32709">
        <ele>130.4765625</ele>
      </trkpt>
      <trkpt lat="48.85753" lon="-0.32703">
        <ele>131.0859375</ele>
      </trkpt>
      <trkpt lat="48.85755" lon="-0.32696">
        <ele>131.4296875</ele>
      </trkpt>
      <trkpt lat="48.85755" lon="-0.32689">
        <ele>131.7617188</ele>
      </trkpt>
      <trkpt lat="48.85756" lon="-0.3268">
        <ele>132.1328125</ele>
      </trkpt>
      <trkpt lat="48.85757" lon="-0.32674">
        <ele>132.4609375</ele>
      </trkpt>
      <trkpt lat="48.85759" lon="-0.32667">
        <ele>132.8164063</ele>
      </trkpt>
      <trkpt lat="48.85759" lon="-0.32661">
        <ele>133.1289063</ele>
      </trkpt>
      <trkpt lat="48.8576" lon="-0.32653">
        <ele>133.4960938</ele>
      </trkpt>
      <trkpt lat="48.85761" lon="-0.32647">
        <ele>133.8164063</ele>
      </trkpt>
      <trkpt lat="48.8576" lon="-0.3264">
        <ele>134.25</ele>
      </trkpt>
      <trkpt lat="48.85758" lon="-0.32633">
        <ele>134.5703125</ele>
      </trkpt>
      <trkpt lat="48.85757" lon="-0.32627">
        <ele>134.9023438</ele>
      </trkpt>
      <trkpt lat="48.85755" lon="-0.32615">
        <ele>135.5234375</ele>
      </trkpt>
      <trkpt lat="48.85752" lon="-0.32609">
        <ele>135.6875</ele>
      </trkpt>
      <trkpt lat="48.85752" lon="-0.32602">
        <ele>136.1210938</ele>
      </trkpt>
      <trkpt lat="48.85755" lon="-0.32596">
        <ele>136.7578125</ele>
      </trkpt>
      <trkpt lat="48.85757" lon="-0.32589">
        <ele>137.3515625</ele>
      </trkpt>
      <trkpt lat="48.85758" lon="-0.32582">
        <ele>137.9140625</ele>
      </trkpt>
      <trkpt lat="48.8576" lon="-0.32575">
        <ele>138.484375</ele>
      </trkpt>
      <trkpt lat="48.8576" lon="-0.32568">
        <ele>139.0039063</ele>
      </trkpt>
      <trkpt lat="48.85761" lon="-0.32561">
        <ele>139.4921875</ele>
      </trkpt>
      <trkpt lat="48.85762" lon="-0.32555">
        <ele>139.9335938</ele>
      </trkpt>
      <trkpt lat="48.85762" lon="-0.32548">
        <ele>140.4101563</ele>
      </trkpt>
      <trkpt lat="48.85764" lon="-0.32543">
        <ele>140.9023438</ele>
      </trkpt>
      <trkpt lat="48.85765" lon="-0.32532">
        <ele>141.6679688</ele>
      </trkpt>
      <trkpt lat="48.85766" lon="-0.32526">
        <ele>142.0429688</ele>
      </trkpt>
      <trkpt lat="48.85768" lon="-0.32518">
        <ele>142.4882813</ele>
      </trkpt>
      <trkpt lat="48.85769" lon="-0.32512">
        <ele>142.9414063</ele>
      </trkpt>
      <trkpt lat="48.85771" lon="-0.32505">
        <ele>143.3359375</ele>
      </trkpt>
      <trkpt lat="48.85771" lon="-0.32499">
        <ele>143.625</ele>
      </trkpt>
      <trkpt lat="48.85772" lon="-0.32492">
        <ele>143.9570313</ele>
      </trkpt>
      <trkpt lat="48.85773" lon="-0.32485">
        <ele>144.3671875</ele>
      </trkpt>
      <trkpt lat="48.85775" lon="-0.32478">
        <ele>144.7695313</ele>
      </trkpt>
      <trkpt lat="48.85776" lon="-0.32471">
        <ele>145.1367188</ele>
      </trkpt>
      <trkpt lat="48.85776" lon="-0.32464">
        <ele>145.4882813</ele>
      </trkpt>
      <trkpt lat="48.85777" lon="-0.32456">
        <ele>145.9453125</ele>
      </trkpt>
      <trkpt lat="48.85779" lon="-0.32448">
        <ele>146.4257813</ele>
      </trkpt>
      <trkpt lat="48.85782" lon="-0.32436">
        <ele>147.1640625</ele>
      </trkpt>
      <trkpt lat="48.85782" lon="-0.32426">
        <ele>147.5742188</ele>
      </trkpt>
      <trkpt lat="48.85784" lon="-0.3242">
        <ele>147.9296875</ele>
      </trkpt>
      <trkpt lat="48.85785" lon="-0.32414">
        <ele>148.1992188</ele>
      </trkpt>
      <trkpt lat="48.85786" lon="-0.32407">
        <ele>148.46875</ele>
      </trkpt>
      <trkpt lat="48.8579" lon="-0.32402">
        <ele>148.9726563</ele>
      </trkpt>
      <trkpt lat="48.85795" lon="-0.32401">
        <ele>149.4257813</ele>
      </trkpt>
      <trkpt lat="48.858" lon="-0.32401">
        <ele>149.8164063</ele>
      </trkpt>
      <trkpt lat="48.85805" lon="-0.32401">
        <ele>150.78125</ele>
      </trkpt>
      <trkpt lat="48.85811" lon="-0.32402">
        <ele>151.8828125</ele>
      </trkpt>
      <trkpt lat="48.85815" lon="-0.32403">
        <ele>152.78125</ele>
      </trkpt>
      <trkpt lat="48.8582" lon="-0.32403">
        <ele>153.71875</ele>
      </trkpt>
      <trkpt lat="48.85825" lon="-0.32403">
        <ele>154.734375</ele>
      </trkpt>
      <trkpt lat="48.8583" lon="-0.32404">
        <ele>155.75</ele>
      </trkpt>
      <trkpt lat="48.85834" lon="-0.32405">
        <ele>156.5820313</ele>
      </trkpt>
      <trkpt lat="48.85844" lon="-0.32405">
        <ele>158.8398438</ele>
      </trkpt>
      <trkpt lat="48.85853" lon="-0.32403">
        <ele>160.5625</ele>
      </trkpt>
      <trkpt lat="48.85873" lon="-0.324">
        <ele>164.1523438</ele>
      </trkpt>
      <trkpt lat="48.85879" lon="-0.324">
        <ele>165.0273438</ele>
      </trkpt>
      <trkpt lat="48.85883" lon="-0.32399">
        <ele>165.8515625</ele>
      </trkpt>
      <trkpt lat="48.85888" lon="-0.32398">
        <ele>166.6640625</ele>
      </trkpt>
      <trkpt lat="48.85892" lon="-0.32394">
        <ele>167.390625</ele>
      </trkpt>
      <trkpt lat="48.85897" lon="-0.32394">
        <ele>168.1171875</ele>
      </trkpt>
      <trkpt lat="48.85902" lon="-0.32394">
        <ele>168.9179688</ele>
      </trkpt>
      <trkpt lat="48.85933" lon="-0.3239">
        <ele>172.9453125</ele>
      </trkpt>
      <trkpt lat="48.85982" lon="-0.32381">
        <ele>178.6875</ele>
      </trkpt>
      <trkpt lat="48.86039" lon="-0.32364">
        <ele>184.2695313</ele>
      </trkpt>
      <trkpt lat="48.86067" lon="-0.3235">
        <ele>186.796875</ele>
      </trkpt>
      <trkpt lat="48.86078" lon="-0.32346">
        <ele>187.796875</ele>
      </trkpt>
      <trkpt lat="48.86083" lon="-0.3234">
        <ele>188.8828125</ele>
      </trkpt>
      <trkpt lat="48.86089" lon="-0.32337">
        <ele>190.21875</ele>
      </trkpt>
      <trkpt lat="48.86092" lon="-0.32329">
        <ele>191.1484375</ele>
      </trkpt>
      <trkpt lat="48.86092" lon="-0.32318">
        <ele>191.4335938</ele>
      </trkpt>
      <trkpt lat="48.8609" lon="-0.32309">
        <ele>191.3476563</ele>
      </trkpt>
      <trkpt lat="48.8609" lon="-0.32299">
        <ele>191.5625</ele>
      </trkpt>
      <trkpt lat="48.86089" lon="-0.3229">
        <ele>191.6289063</ele>
      </trkpt>
      <trkpt lat="48.86089" lon="-0.32281">
        <ele>191.6953125</ele>
      </trkpt>
      <trkpt lat="48.86087" lon="-0.32272">
        <ele>191.6210938</ele>
      </trkpt>
      <trkpt lat="48.86085" lon="-0.32262">
        <ele>191.4257813</ele>
      </trkpt>
      <trkpt lat="48.86084" lon="-0.32253">
        <ele>191.3359375</ele>
      </trkpt>
      <trkpt lat="48.86083" lon="-0.32244">
        <ele>191.2421875</ele>
      </trkpt>
      <trkpt lat="48.86082" lon="-0.32233">
        <ele>191.1679688</ele>
      </trkpt>
      <trkpt lat="48.86082" lon="-0.32221">
        <ele>191.3945313</ele>
      </trkpt>
      <trkpt lat="48.8608" lon="-0.32211">
        <ele>191.2929688</ele>
      </trkpt>
      <trkpt lat="48.86079" lon="-0.32201">
        <ele>191.0390625</ele>
      </trkpt>
      <trkpt lat="48.86079" lon="-0.32189">
        <ele>191.25</ele>
      </trkpt>
      <trkpt lat="48.86079" lon="-0.32178">
        <ele>191.4492188</ele>
      </trkpt>
      <trkpt lat="48.86079" lon="-0.32168">
        <ele>191.6445313</ele>
      </trkpt>
      <trkpt lat="48.86077" lon="-0.32158">
        <ele>191.6640625</ele>
      </trkpt>
      <trkpt lat="48.86077" lon="-0.32148">
        <ele>191.8242188</ele>
      </trkpt>
      <trkpt lat="48.86076" lon="-0.32138">
        <ele>191.8398438</ele>
      </trkpt>
      <trkpt lat="48.86069" lon="-0.32091">
        <ele>191.65625</ele>
      </trkpt>
      <trkpt lat="48.86067" lon="-0.32082">
        <ele>191.546875</ele>
      </trkpt>
      <trkpt lat="48.86066" lon="-0.32073">
        <ele>191.53125</ele>
      </trkpt>
      <trkpt lat="48.86064" lon="-0.32064">
        <ele>191.421875</ele>
      </trkpt>
      <trkpt lat="48.86063" lon="-0.32055">
        <ele>191.40625</ele>
      </trkpt>
      <trkpt lat="48.8606" lon="-0.32046">
        <ele>191.2070313</ele>
      </trkpt>
      <trkpt lat="48.86058" lon="-0.32036">
        <ele>191.1171875</ele>
      </trkpt>
      <trkpt lat="48.86056" lon="-0.32026">
        <ele>190.96875</ele>
      </trkpt>
      <trkpt lat="48.86053" lon="-0.32017">
        <ele>190.6523438</ele>
      </trkpt>
      <trkpt lat="48.86057" lon="-0.3201">
        <ele>191.5</ele>
      </trkpt>
      <trkpt lat="48.86058" lon="-0.32001">
        <ele>191.9140625</ele>
      </trkpt>
      <trkpt lat="48.86058" lon="-0.3199">
        <ele>192.1640625</ele>
      </trkpt>
      <trkpt lat="48.86057" lon="-0.3198">
        <ele>192.1679688</ele>
      </trkpt>
      <trkpt lat="48.86057" lon="-0.3197">
        <ele>192.4179688</ele>
      </trkpt>
      <trkpt lat="48.86062" lon="-0.31957">
        <ele>193.515625</ele>
      </trkpt>
      <trkpt lat="48.86062" lon="-0.31948">
        <ele>193.8164063</ele>
      </trkpt>
      <trkpt lat="48.86063" lon="-0.31941">
        <ele>194.1953125</ele>
      </trkpt>
      <trkpt lat="48.86067" lon="-0.31926">
        <ele>195.046875</ele>
      </trkpt>
      <trkpt lat="48.8607" lon="-0.31918">
        <ele>195.8203125</ele>
      </trkpt>
      <trkpt lat="48.86072" lon="-0.31909">
        <ele>196.5390625</ele>
      </trkpt>
      <trkpt lat="48.86074" lon="-0.319">
        <ele>197.0664063</ele>
      </trkpt>
      <trkpt lat="48.86079" lon="-0.31893">
        <ele>198.1523438</ele>
      </trkpt>
      <trkpt lat="48.86087" lon="-0.31889">
        <ele>199.890625</ele>
      </trkpt>
      <trkpt lat="48.86093" lon="-0.31885">
        <ele>201.1992188</ele>
      </trkpt>
      <trkpt lat="48.86098" lon="-0.31894">
        <ele>201.9414063</ele>
      </trkpt>
      <trkpt lat="48.86103" lon="-0.31901">
        <ele>202.8007813</ele>
      </trkpt>
      <trkpt lat="48.86109" lon="-0.31902">
        <ele>204.03125</ele>
      </trkpt>
      <trkpt lat="48.86113" lon="-0.31903">
        <ele>204.6523438</ele>
      </trkpt>
      <trkpt lat="48.86117" lon="-0.31906">
        <ele>205.5117188</ele>
      </trkpt>
      <trkpt lat="48.86123" lon="-0.31911">
        <ele>206.7617188</ele>
      </trkpt>
      <trkpt lat="48.86133" lon="-0.31916">
        <ele>208.8398438</ele>
      </trkpt>
      <trkpt lat="48.86138" lon="-0.31922">
        <ele>209.3085938</ele>
      </trkpt>
      <trkpt lat="48.86145" lon="-0.31924">
        <ele>209.7617188</ele>
      </trkpt>
      <trkpt lat="48.86152" lon="-0.31927">
        <ele>210.28125</ele>
      </trkpt>
      <trkpt lat="48.86158" lon="-0.31929">
        <ele>210.671875</ele>
      </trkpt>
      <trkpt lat="48.86159" lon="-0.31905">
        <ele>210.8007813</ele>
      </trkpt>
      <trkpt lat="48.86144" lon="-0.31795">
        <ele>209.8164063</ele>
      </trkpt>
      <trkpt lat="48.86131" lon="-0.31684">
        <ele>210.7304688</ele>
      </trkpt>
      <trkpt lat="48.86111" lon="-0.31543">
        <ele>209.1757813</ele>
      </trkpt>
      <trkpt lat="48.86104" lon="-0.31486">
        <ele>208.9296875</ele>
      </trkpt>
      <trkpt lat="48.86085" lon="-0.31384">
        <ele>208.2265625</ele>
      </trkpt>
      <trkpt lat="48.86063" lon="-0.31292">
        <ele>204.546875</ele>
      </trkpt>
      <trkpt lat="48.86056" lon="-0.31286">
        <ele>208</ele>
        <time>2008-11-20T20:03:43Z</time>
      </trkpt>
      <trkpt lat="48.86188" lon="-0.31258">
        <ele>211</ele>
        <time>2008-11-20T20:02:49Z</time>
      </trkpt>
      <trkpt lat="48.86307" lon="-0.31269">
        <ele>212</ele>
        <time>2008-11-20T20:02:02Z</time>
      </trkpt>
      <trkpt lat="48.86413" lon="-0.31257">
        <ele>210</ele>
        <time>2008-11-20T20:01:19Z</time>
      </trkpt>
      <trkpt lat="48.86475" lon="-0.31273">
        <ele>211</ele>
        <time>2008-11-20T20:00:54Z</time>
      </trkpt>
      <trkpt lat="48.86561" lon="-0.31251">
        <ele>212</ele>
        <time>2008-11-20T20:00:19Z</time>
      </trkpt>
      <trkpt lat="48.86673" lon="-0.3124">
        <ele>212</ele>
        <time>2008-11-20T19:59:34Z</time>
      </trkpt>
      <trkpt lat="48.86761" lon="-0.31231">
        <ele>212</ele>
        <time>2008-11-20T19:58:58Z</time>
      </trkpt>
      <trkpt lat="48.86826" lon="-0.31165">
        <ele>213</ele>
        <time>2008-11-20T19:58:27Z</time>
      </trkpt>
      <trkpt lat="48.86855" lon="-0.31275">
        <ele>212</ele>
        <time>2008-11-20T19:57:56Z</time>
      </trkpt>
      <trkpt lat="48.86803" lon="-0.31437">
        <ele>212</ele>
        <time>2008-11-20T19:57:09Z</time>
      </trkpt>
      <trkpt lat="48.86755" lon="-0.31517">
        <ele>212</ele>
        <time>2008-11-20T19:56:40Z</time>
      </trkpt>
      <trkpt lat="48.8674" lon="-0.31572">
        <ele>211</ele>
        <time>2008-11-20T19:56:25Z</time>
      </trkpt>
      <trkpt lat="48.86744" lon="-0.31628">
        <ele>210</ele>
        <time>2008-11-20T19:56:10Z</time>
      </trkpt>
      <trkpt lat="48.86782" lon="-0.3173">
        <ele>202</ele>
        <time>2008-11-20T19:55:39Z</time>
      </trkpt>
      <trkpt lat="48.86799" lon="-0.31848">
        <ele>195</ele>
        <time>2008-11-20T19:55:07Z</time>
      </trkpt>
      <trkpt lat="48.86802" lon="-0.31952">
        <ele>189</ele>
        <time>2008-11-20T19:54:40Z</time>
      </trkpt>
      <trkpt lat="48.86797" lon="-0.32086">
        <ele>183</ele>
        <time>2008-11-20T19:54:04Z</time>
      </trkpt>
      <trkpt lat="48.8683" lon="-0.32109">
        <ele>177</ele>
        <time>2008-11-20T19:53:50Z</time>
      </trkpt>
      <trkpt lat="48.86855" lon="-0.32158">
        <ele>165</ele>
        <time>2008-11-20T19:53:33Z</time>
      </trkpt>
      <trkpt lat="48.86873" lon="-0.32241">
        <ele>153</ele>
        <time>2008-11-20T19:53:10Z</time>
      </trkpt>
      <trkpt lat="48.86871" lon="-0.32327">
        <ele>149</ele>
        <time>2008-11-20T19:52:48Z</time>
      </trkpt>
      <trkpt lat="48.86844" lon="-0.32374">
        <ele>149</ele>
        <time>2008-11-20T19:52:31Z</time>
      </trkpt>
      <trkpt lat="48.86842" lon="-0.32464">
        <ele>142</ele>
        <time>2008-11-20T19:52:07Z</time>
      </trkpt>
      <trkpt lat="48.8685" lon="-0.32525">
        <ele>143</ele>
        <time>2008-11-20T19:51:51Z</time>
      </trkpt>
      <trkpt lat="48.86966" lon="-0.3254">
        <ele>160</ele>
        <time>2008-11-20T19:51:04Z</time>
      </trkpt>
      <trkpt lat="48.87061" lon="-0.32519">
        <ele>162</ele>
        <time>2008-11-20T19:50:26Z</time>
      </trkpt>
      <trkpt lat="48.87141" lon="-0.32523">
        <ele>167</ele>
        <time>2008-11-20T19:49:54Z</time>
      </trkpt>
      <trkpt lat="48.8733" lon="-0.32498">
        <ele>178</ele>
        <time>2008-11-20T19:48:38Z</time>
      </trkpt>
      <trkpt lat="48.87388" lon="-0.32579">
        <ele>178</ele>
        <time>2008-11-20T19:48:06Z</time>
      </trkpt>
      <trkpt lat="48.8755" lon="-0.32626">
        <ele>178</ele>
        <time>2008-11-20T19:47:01Z</time>
      </trkpt>
      <trkpt lat="48.87637" lon="-0.32544">
        <ele>189</ele>
        <time>2008-11-20T19:46:19Z</time>
      </trkpt>
      <trkpt lat="48.8767" lon="-0.32485">
        <ele>194</ele>
        <time>2008-11-20T19:45:59Z</time>
      </trkpt>
      <trkpt lat="48.87879" lon="-0.32336">
        <ele>208</ele>
        <time>2008-11-20T19:44:27Z</time>
      </trkpt>
      <trkpt lat="48.88006" lon="-0.32247">
        <ele>214</ele>
        <time>2008-11-20T19:43:30Z</time>
      </trkpt>
      <trkpt lat="48.88073" lon="-0.32199">
        <ele>218</ele>
        <time>2008-11-20T19:43:01Z</time>
      </trkpt>
      <trkpt lat="48.88096" lon="-0.32308">
        <ele>214</ele>
        <time>2008-11-20T19:42:31Z</time>
      </trkpt>
      <trkpt lat="48.88093" lon="-0.32451">
        <ele>210</ele>
        <time>2008-11-20T19:41:53Z</time>
      </trkpt>
      <trkpt lat="48.88097" lon="-0.32555">
        <ele>210</ele>
        <time>2008-11-20T19:41:26Z</time>
      </trkpt>
      <trkpt lat="48.88097" lon="-0.32667">
        <ele>206</ele>
        <time>2008-11-20T19:40:56Z</time>
      </trkpt>
      <trkpt lat="48.88094" lon="-0.32789">
        <ele>193</ele>
        <time>2008-11-20T19:40:24Z</time>
      </trkpt>
      <trkpt lat="48.8815" lon="-0.32861">
        <ele>182</ele>
        <time>2008-11-20T19:39:55Z</time>
      </trkpt>
      <trkpt lat="48.88211" lon="-0.3282">
        <ele>180</ele>
        <time>2008-11-20T19:39:28Z</time>
      </trkpt>
      <trkpt lat="48.88311" lon="-0.328">
        <ele>180</ele>
        <time>2008-11-20T19:38:48Z</time>
      </trkpt>
      <trkpt lat="48.88369" lon="-0.32759">
        <ele>182</ele>
        <time>2008-11-20T19:38:22Z</time>
      </trkpt>
      <trkpt lat="48.88415" lon="-0.32744">
        <ele>183</ele>
        <time>2008-11-20T19:38:03Z</time>
      </trkpt>
      <trkpt lat="48.88488" lon="-0.32796">
        <ele>186</ele>
        <time>2008-11-20T19:37:31Z</time>
      </trkpt>
      <trkpt lat="48.88534" lon="-0.32746">
        <ele>188</ele>
        <time>2008-11-20T19:37:09Z</time>
      </trkpt>
      <trkpt lat="48.88559" lon="-0.32683">
        <ele>191</ele>
        <time>2008-11-20T19:36:49Z</time>
      </trkpt>
      <trkpt lat="48.8855" lon="-0.32557">
        <ele>205</ele>
        <time>2008-11-20T19:36:16Z</time>
      </trkpt>
      <trkpt lat="48.88575" lon="-0.32467">
        <ele>209</ele>
        <time>2008-11-20T19:35:50Z</time>
      </trkpt>
      <trkpt lat="48.88571" lon="-0.32376">
        <ele>215</ele>
        <time>2008-11-20T19:35:26Z</time>
      </trkpt>
      <trkpt lat="48.88556" lon="-0.32024">
        <ele>227</ele>
        <time>2008-11-20T19:33:53Z</time>
      </trkpt>
      <trkpt lat="48.88557" lon="-0.31998">
        <ele>227</ele>
        <time>2008-11-20T19:33:47Z</time>
      </trkpt>
      <trkpt lat="48.88596" lon="-0.31892">
        <ele>227</ele>
        <time>2008-11-20T19:33:15Z</time>
      </trkpt>
      <trkpt lat="48.88604" lon="-0.31797">
        <ele>229</ele>
        <time>2008-11-20T19:32:49Z</time>
      </trkpt>
      <trkpt lat="48.88608" lon="-0.31633">
        <ele>235</ele>
        <time>2008-11-20T19:32:06Z</time>
      </trkpt>
      <trkpt lat="48.8863" lon="-0.31548">
        <ele>239</ele>
        <time>2008-11-20T19:31:42Z</time>
      </trkpt>
      <trkpt lat="48.88627" lon="-0.31576">
        <ele>235.5546875</ele>
      </trkpt>
      <trkpt lat="48.88636" lon="-0.31599">
        <ele>235.03125</ele>
      </trkpt>
      <trkpt lat="48.88648" lon="-0.31622">
        <ele>234.9921875</ele>
      </trkpt>
      <trkpt lat="48.88664" lon="-0.31635">
        <ele>235.0429688</ele>
      </trkpt>
      <trkpt lat="48.88682" lon="-0.31646">
        <ele>234.9804688</ele>
      </trkpt>
      <trkpt lat="48.887" lon="-0.31643">
        <ele>235.65625</ele>
      </trkpt>
      <trkpt lat="48.88718" lon="-0.31648">
        <ele>236.0585938</ele>
      </trkpt>
      <trkpt lat="48.88733" lon="-0.31664">
        <ele>236.015625</ele>
      </trkpt>
      <trkpt lat="48.88751" lon="-0.31674">
        <ele>236.3515625</ele>
      </trkpt>
      <trkpt lat="48.88767" lon="-0.3169">
        <ele>236.40625</ele>
      </trkpt>
      <trkpt lat="48.88783" lon="-0.31711">
        <ele>236</ele>
      </trkpt>
      <trkpt lat="48.88794" lon="-0.31734">
        <ele>235.125</ele>
      </trkpt>
      <trkpt lat="48.88806" lon="-0.31755">
        <ele>234.5859375</ele>
      </trkpt>
      <trkpt lat="48.88821" lon="-0.31776">
        <ele>234.1171875</ele>
      </trkpt>
      <trkpt lat="48.88832" lon="-0.31796">
        <ele>233.3007813</ele>
      </trkpt>
      <trkpt lat="48.88842" lon="-0.31817">
        <ele>232.3203125</ele>
      </trkpt>
      <trkpt lat="48.88853" lon="-0.31843">
        <ele>230.8359375</ele>
      </trkpt>
      <trkpt lat="48.88862" lon="-0.31867">
        <ele>229.3398438</ele>
      </trkpt>
      <trkpt lat="48.88876" lon="-0.31887">
        <ele>227.90625</ele>
      </trkpt>
      <trkpt lat="48.88887" lon="-0.31908">
        <ele>226.5078125</ele>
      </trkpt>
      <trkpt lat="48.88894" lon="-0.31934">
        <ele>224.890625</ele>
      </trkpt>
      <trkpt lat="48.889" lon="-0.3196">
        <ele>223.609375</ele>
      </trkpt>
      <trkpt lat="48.88909" lon="-0.31986">
        <ele>222.5234375</ele>
      </trkpt>
      <trkpt lat="48.88916" lon="-0.32012">
        <ele>220.78125</ele>
      </trkpt>
      <trkpt lat="48.88918" lon="-0.32038">
        <ele>219.0234375</ele>
      </trkpt>
      <trkpt lat="48.88916" lon="-0.32064">
        <ele>217.5898438</ele>
      </trkpt>
      <trkpt lat="48.88916" lon="-0.3209">
        <ele>216.1835938</ele>
      </trkpt>
      <trkpt lat="48.88914" lon="-0.32124">
        <ele>214.328125</ele>
      </trkpt>
      <trkpt lat="48.88925" lon="-0.32145">
        <ele>213.3984375</ele>
      </trkpt>
      <trkpt lat="48.88943" lon="-0.32155">
        <ele>213.3046875</ele>
      </trkpt>
      <trkpt lat="48.88959" lon="-0.32168">
        <ele>213.125</ele>
      </trkpt>
      <trkpt lat="48.88979" lon="-0.32184">
        <ele>212.5234375</ele>
      </trkpt>
      <trkpt lat="48.88997" lon="-0.32191">
        <ele>211.953125</ele>
      </trkpt>
      <trkpt lat="48.89009" lon="-0.32215">
        <ele>210.7226563</ele>
      </trkpt>
      <trkpt lat="48.89024" lon="-0.32233">
        <ele>209.9023438</ele>
      </trkpt>
      <trkpt lat="48.8904" lon="-0.32251">
        <ele>209.25</ele>
      </trkpt>
      <trkpt lat="48.89054" lon="-0.32269">
        <ele>208.5117188</ele>
      </trkpt>
      <trkpt lat="48.89067" lon="-0.3229">
        <ele>207.7421875</ele>
      </trkpt>
      <trkpt lat="48.89081" lon="-0.32308">
        <ele>207.2734375</ele>
      </trkpt>
      <trkpt lat="48.89097" lon="-0.32321">
        <ele>207.09375</ele>
      </trkpt>
      <trkpt lat="48.89092" lon="-0.32306">
        <ele>207.5585938</ele>
      </trkpt>
      <trkpt lat="48.89092" lon="-0.32275">
        <ele>208.6835938</ele>
      </trkpt>
      <trkpt lat="48.89096" lon="-0.32249">
        <ele>209.6835938</ele>
      </trkpt>
      <trkpt lat="48.89096" lon="-0.32223">
        <ele>210.6210938</ele>
      </trkpt>
      <trkpt lat="48.89096" lon="-0.32194">
        <ele>211.6484375</ele>
      </trkpt>
      <trkpt lat="48.89092" lon="-0.32168">
        <ele>212.5195313</ele>
      </trkpt>
      <trkpt lat="48.89092" lon="-0.32142">
        <ele>213.5703125</ele>
      </trkpt>
      <trkpt lat="48.89099" lon="-0.32116">
        <ele>215.3085938</ele>
      </trkpt>
      <trkpt lat="48.8911" lon="-0.32093">
        <ele>217.125</ele>
      </trkpt>
      <trkpt lat="48.89126" lon="-0.3208">
        <ele>218.234375</ele>
      </trkpt>
      <trkpt lat="48.89144" lon="-0.32069">
        <ele>219.015625</ele>
      </trkpt>
      <trkpt lat="48.89148" lon="-0.32043">
        <ele>220.015625</ele>
      </trkpt>
      <trkpt lat="48.89141" lon="-0.32017">
        <ele>221.1601563</ele>
      </trkpt>
      <trkpt lat="48.89142" lon="-0.31991">
        <ele>222.5976563</ele>
      </trkpt>
      <trkpt lat="48.89146" lon="-0.31965">
        <ele>224.0664063</ele>
      </trkpt>
      <trkpt lat="48.89151" lon="-0.31939">
        <ele>225.5664063</ele>
      </trkpt>
      <trkpt lat="48.89166" lon="-0.31924">
        <ele>226.6679688</ele>
      </trkpt>
      <trkpt lat="48.89175" lon="-0.319">
        <ele>228.09375</ele>
      </trkpt>
      <trkpt lat="48.89182" lon="-0.31874">
        <ele>229.6289063</ele>
      </trkpt>
      <trkpt lat="48.89191" lon="-0.31851">
        <ele>230.703125</ele>
      </trkpt>
      <trkpt lat="48.89207" lon="-0.3183">
        <ele>231.515625</ele>
      </trkpt>
      <trkpt lat="48.89218" lon="-0.31809">
        <ele>232.1601563</ele>
      </trkpt>
      <trkpt lat="48.89225" lon="-0.31783">
        <ele>233.0976563</ele>
      </trkpt>
      <trkpt lat="48.89232" lon="-0.31757">
        <ele>234.015625</ele>
      </trkpt>
      <trkpt lat="48.89238" lon="-0.31729">
        <ele>234.53125</ele>
      </trkpt>
      <trkpt lat="48.89248" lon="-0.31706">
        <ele>234.859375</ele>
      </trkpt>
      <trkpt lat="48.89261" lon="-0.31685">
        <ele>235.0078125</ele>
      </trkpt>
      <trkpt lat="48.89263" lon="-0.31659">
        <ele>235.4453125</ele>
      </trkpt>
      <trkpt lat="48.89263" lon="-0.3163">
        <ele>235.9609375</ele>
      </trkpt>
      <trkpt lat="48.89261" lon="-0.31604">
        <ele>236.4609375</ele>
      </trkpt>
      <trkpt lat="48.89266" lon="-0.31576">
        <ele>236.7539063</ele>
      </trkpt>
      <trkpt lat="48.89274" lon="-0.31544">
        <ele>236.84375</ele>
      </trkpt>
      <trkpt lat="48.89286" lon="-0.31518">
        <ele>236.4570313</ele>
      </trkpt>
      <trkpt lat="48.89291" lon="-0.31487">
        <ele>236.2617188</ele>
      </trkpt>
      <trkpt lat="48.89297" lon="-0.31461">
        <ele>236.0664063</ele>
      </trkpt>
      <trkpt lat="48.89306" lon="-0.31438">
        <ele>235.8710938</ele>
      </trkpt>
      <trkpt lat="48.89322" lon="-0.31425">
        <ele>235.5820313</ele>
      </trkpt>
      <trkpt lat="48.89336" lon="-0.31407">
        <ele>235.3203125</ele>
      </trkpt>
      <trkpt lat="48.89344" lon="-0.31378">
        <ele>235.1914063</ele>
      </trkpt>
      <trkpt lat="48.89356" lon="-0.31352">
        <ele>234.6484375</ele>
      </trkpt>
      <trkpt lat="48.89369" lon="-0.31331">
        <ele>234.046875</ele>
      </trkpt>
      <trkpt lat="48.8938" lon="-0.31308">
        <ele>233.3789063</ele>
      </trkpt>
      <trkpt lat="48.89389" lon="-0.31279">
        <ele>232.3671875</ele>
      </trkpt>
      <trkpt lat="48.89397" lon="-0.31253">
        <ele>231.3476563</ele>
      </trkpt>
      <trkpt lat="48.89408" lon="-0.31227">
        <ele>230.4882813</ele>
      </trkpt>
      <trkpt lat="48.89414" lon="-0.31201">
        <ele>229.96875</ele>
      </trkpt>
      <trkpt lat="48.89421" lon="-0.31175">
        <ele>229.5</ele>
      </trkpt>
      <trkpt lat="48.89428" lon="-0.31149">
        <ele>229.03125</ele>
      </trkpt>
      <trkpt lat="48.89439" lon="-0.31129">
        <ele>228.8203125</ele>
      </trkpt>
      <trkpt lat="48.89446" lon="-0.31103">
        <ele>228.4726563</ele>
      </trkpt>
      <trkpt lat="48.89451" lon="-0.31077">
        <ele>228.25</ele>
      </trkpt>
      <trkpt lat="48.8946" lon="-0.31051">
        <ele>228.0898438</ele>
      </trkpt>
      <trkpt lat="48.89475" lon="-0.3103">
        <ele>227.8789063</ele>
      </trkpt>
      <trkpt lat="48.89482" lon="-0.31004">
        <ele>227.4101563</ele>
      </trkpt>
      <trkpt lat="48.89568" lon="-0.31036">
        <ele>228</ele>
      </trkpt>
      <trkpt lat="48.89569" lon="-0.31037">
        <ele>227</ele>
        <time>2008-11-20T19:22:06Z</time>
      </trkpt>
      <trkpt lat="48.89612" lon="-0.3103">
        <ele>227.3554688</ele>
      </trkpt>
      <trkpt lat="48.89654" lon="-0.3105">
        <ele>225</ele>
        <time>2008-11-20T19:21:31Z</time>
      </trkpt>
      <trkpt lat="48.89797" lon="-0.31044">
        <ele>222</ele>
        <time>2008-11-20T19:20:34Z</time>
      </trkpt>
      <trkpt lat="48.89811" lon="-0.30915">
        <ele>223</ele>
        <time>2008-11-20T19:20:00Z</time>
      </trkpt>
      <trkpt lat="48.89835" lon="-0.30639">
        <ele>222</ele>
        <time>2008-11-20T19:18:46Z</time>
      </trkpt>
      <trkpt lat="48.8982" lon="-0.304">
        <ele>222</ele>
        <time>2008-11-20T19:17:43Z</time>
      </trkpt>
      <trkpt lat="48.89814" lon="-0.30171">
        <ele>221</ele>
        <time>2008-11-20T19:16:43Z</time>
      </trkpt>
      <trkpt lat="48.89761" lon="-0.29982">
        <ele>222</ele>
        <time>2008-11-20T19:15:49Z</time>
      </trkpt>
      <trkpt lat="48.89749" lon="-0.29864">
        <ele>225</ele>
        <time>2008-11-20T19:15:17Z</time>
      </trkpt>
      <trkpt lat="48.89748" lon="-0.29531">
        <ele>228</ele>
        <time>2008-11-20T19:13:50Z</time>
      </trkpt>
      <trkpt lat="48.89776" lon="-0.29307">
        <ele>226</ele>
        <time>2008-11-20T19:12:50Z</time>
      </trkpt>
      <trkpt lat="48.89808" lon="-0.29127">
        <ele>226</ele>
        <time>2008-11-20T19:12:01Z</time>
      </trkpt>
      <trkpt lat="48.89829" lon="-0.29076">
        <ele>226</ele>
        <time>2008-11-20T19:11:45Z</time>
      </trkpt>
      <trkpt lat="48.899" lon="-0.29105">
        <ele>227</ele>
        <time>2008-11-20T19:11:15Z</time>
      </trkpt>
      <trkpt lat="48.89961" lon="-0.29199">
        <ele>228</ele>
        <time>2008-11-20T19:10:41Z</time>
      </trkpt>
      <trkpt lat="48.90082" lon="-0.29396">
        <ele>227</ele>
        <time>2008-11-20T19:09:30Z</time>
      </trkpt>
      <trkpt lat="48.90176" lon="-0.29513">
        <ele>225</ele>
        <time>2008-11-20T19:08:41Z</time>
      </trkpt>
      <trkpt lat="48.90246" lon="-0.29586">
        <ele>224</ele>
        <time>2008-11-20T19:08:07Z</time>
      </trkpt>
      <trkpt lat="48.90414" lon="-0.29759">
        <ele>222</ele>
        <time>2008-11-20T19:06:46Z</time>
      </trkpt>
      <trkpt lat="48.905" lon="-0.2985">
        <ele>221</ele>
        <time>2008-11-20T19:06:04Z</time>
      </trkpt>
      <trkpt lat="48.90528" lon="-0.29886">
        <ele>220</ele>
        <time>2008-11-20T19:05:49Z</time>
      </trkpt>
      <trkpt lat="48.90603" lon="-0.29973">
        <ele>218</ele>
        <time>2008-11-20T19:05:12Z</time>
      </trkpt>
      <trkpt lat="48.90709" lon="-0.30056">
        <ele>217</ele>
        <time>2008-11-20T19:04:24Z</time>
      </trkpt>
      <trkpt lat="48.90848" lon="-0.30223">
        <ele>215</ele>
        <time>2008-11-20T19:03:13Z</time>
      </trkpt>
      <trkpt lat="48.90856" lon="-0.30267">
        <ele>215</ele>
        <time>2008-11-20T19:03:01Z</time>
      </trkpt>
      <trkpt lat="48.90816" lon="-0.30408">
        <ele>217</ele>
        <time>2008-11-20T19:02:20Z</time>
      </trkpt>
      <trkpt lat="48.90806" lon="-0.30464">
        <ele>218</ele>
        <time>2008-11-20T19:02:05Z</time>
      </trkpt>
      <trkpt lat="48.90924" lon="-0.30652">
        <ele>214</ele>
        <time>2008-11-20T19:00:57Z</time>
      </trkpt>
      <trkpt lat="48.91138" lon="-0.3068">
        <ele>213</ele>
        <time>2008-11-20T18:59:31Z</time>
      </trkpt>
      <trkpt lat="48.91156" lon="-0.30633">
        <ele>213</ele>
        <time>2008-11-20T18:59:17Z</time>
      </trkpt>
      <trkpt lat="48.91163" lon="-0.30573">
        <ele>213</ele>
        <time>2008-11-20T18:59:01Z</time>
      </trkpt>
      <trkpt lat="48.91192" lon="-0.30544">
        <ele>212</ele>
        <time>2008-11-20T18:58:47Z</time>
      </trkpt>
      <trkpt lat="48.91222" lon="-0.30476">
        <ele>211</ele>
        <time>2008-11-20T18:58:25Z</time>
      </trkpt>
      <trkpt lat="48.91256" lon="-0.30374">
        <ele>209</ele>
        <time>2008-11-20T18:57:55Z</time>
      </trkpt>
      <trkpt lat="48.91343" lon="-0.30335">
        <ele>209</ele>
        <time>2008-11-20T18:57:19Z</time>
      </trkpt>
      <trkpt lat="48.91403" lon="-0.30291">
        <ele>210</ele>
        <time>2008-11-20T18:56:52Z</time>
      </trkpt>
      <trkpt lat="48.91465" lon="-0.30233">
        <ele>211</ele>
        <time>2008-11-20T18:56:23Z</time>
      </trkpt>
      <trkpt lat="48.915" lon="-0.30204">
        <ele>211</ele>
        <time>2008-11-20T18:56:07Z</time>
      </trkpt>
      <trkpt lat="48.91568" lon="-0.30195">
        <ele>211</ele>
        <time>2008-11-20T18:55:40Z</time>
      </trkpt>
      <trkpt lat="48.91581" lon="-0.30248">
        <ele>211</ele>
        <time>2008-11-20T18:55:25Z</time>
      </trkpt>
      <trkpt lat="48.91597" lon="-0.303">
        <ele>210</ele>
        <time>2008-11-20T18:55:09Z</time>
      </trkpt>
      <trkpt lat="48.91631" lon="-0.30341">
        <ele>210</ele>
        <time>2008-11-20T18:54:52Z</time>
      </trkpt>
      <trkpt lat="48.91679" lon="-0.30365">
        <ele>209</ele>
        <time>2008-11-20T18:54:32Z</time>
      </trkpt>
      <trkpt lat="48.91698" lon="-0.30405">
        <ele>209</ele>
        <time>2008-11-20T18:54:19Z</time>
      </trkpt>
      <trkpt lat="48.91695" lon="-0.30415">
        <ele>209</ele>
        <time>2008-11-20T23:06:50Z</time>
      </trkpt>
      <trkpt lat="48.91754" lon="-0.30574">
        <ele>208</ele>
        <time>2008-11-20T23:06:02Z</time>
      </trkpt>
    </trkseg>
  </trk>
</gpx>